PWSweather.com
Personal Weather Stations
Station Observations
DL5ARK
SonnebergDE

SonnebergDE

Lat: 50.34904861, Lon: 11.18112087

Elevation: 1214

Station Type: Selfmade

http://www.sumbarg.de

High Low Average
Temperature 37.9°F3.3°C 32.3°F0.2°C 35.5°F1.9°C
Dew Point 41.0°F5.0°C 36.4°F2.4°C 38.9°F3.8°C
Winds 12.8 mph 20.6 kmh Calm Calm 2.0 mph W3.2 kmh W
Wind Gusts 13.1 mph21.1 kmh -- 2.0 mph3.2 kmh
Humidity 91% 83% 88%
Pressure 30.03 in1016.9 mb 29.84 in1010.5 mb -
Precipitation 0.12 in3.0 mm - -
Hour Temp Dew Point Humidity Winds Wind Gusts Pressure Precip Precip Rate Daily Precip Total
12:02 AM 37.6°F3.1°C 39.5°F4.2°C 84% 4.9 mph W7.9 kmh W 4.9 mph7.9 kmh 29.96 in1014.6 mb 0.00 in0.0 mm 0.00 in0.0 mm 0.00 in0.0 mm
12:05 AM 37.7°F3.2°C 39.4°F4.1°C 84% 4.8 mph NNW7.7 kmh NNW 4.8 mph7.7 kmh 29.96 in1014.6 mb 0.00 in0.0 mm 0.00 in0.0 mm 0.00 in0.0 mm
12:08 AM 37.7°F3.2°C 39.6°F4.2°C 84% 4.9 mph NW7.9 kmh NW 4.9 mph7.9 kmh 29.96 in1014.6 mb 0.00 in0.0 mm 0.00 in0.0 mm 0.00 in0.0 mm
12:11 AM 37.6°F3.1°C 39.8°F4.3°C 84% 3.2 mph WNW5.1 kmh WNW 3.3 mph5.3 kmh 29.96 in1014.6 mb 0.00 in0.0 mm 0.00 in0.0 mm 0.00 in0.0 mm
12:14 AM 37.6°F3.1°C 39.4°F4.1°C 84% 9.3 mph NNW15.0 kmh NNW 9.3 mph15.0 kmh 29.96 in1014.6 mb 0.00 in0.0 mm 0.00 in0.0 mm 0.00 in0.0 mm
12:17 AM 37.9°F3.3°C 39.6°F4.2°C 85% 6.5 mph NNW10.5 kmh NNW 6.5 mph10.5 kmh 29.96 in1014.6 mb 0.00 in0.0 mm 0.00 in0.0 mm 0.00 in0.0 mm
12:20 AM 37.6°F3.1°C 39.8°F4.3°C 85% 6.1 mph 9.8 kmh 6.1 mph9.8 kmh 29.96 in1014.6 mb 0.00 in0.0 mm 0.00 in0.0 mm 0.00 in0.0 mm
12:23 AM 37.6°F3.1°C 39.6°F4.2°C 84% 5.7 mph NNW9.2 kmh NNW 5.7 mph9.2 kmh 29.96 in1014.6 mb 0.00 in0.0 mm 0.00 in0.0 mm 0.00 in0.0 mm
12:26 AM 37.6°F3.1°C 39.8°F4.3°C 85% 2.8 mph NW4.5 kmh NW 2.8 mph4.5 kmh 29.96 in1014.6 mb 0.00 in0.0 mm 0.00 in0.0 mm 0.00 in0.0 mm
12:29 AM 37.6°F3.1°C 39.8°F4.3°C 85% 2.8 mph NW4.5 kmh NW 2.8 mph4.5 kmh 29.96 in1014.6 mb 0.00 in0.0 mm 0.00 in0.0 mm 0.00 in0.0 mm
12:32 AM 37.6°F3.1°C 39.9°F4.4°C 85% 4.0 mph NNW6.4 kmh NNW 4.0 mph6.4 kmh 29.96 in1014.6 mb 0.00 in0.0 mm 0.00 in0.0 mm 0.00 in0.0 mm
12:35 AM 37.5°F3.1°C 39.8°F4.3°C 85% 2.4 mph NW3.9 kmh NW 2.5 mph4.0 kmh 29.96 in1014.6 mb 0.00 in0.0 mm 0.00 in0.0 mm 0.00 in0.0 mm
12:38 AM 37.5°F3.1°C 39.8°F4.3°C 85% 3.2 mph NNW5.1 kmh NNW 3.2 mph5.1 kmh 29.96 in1014.6 mb 0.00 in0.0 mm 0.00 in0.0 mm 0.00 in0.0 mm
12:41 AM 37.4°F3.0°C 39.8°F4.3°C 85% 7.3 mph NNW11.7 kmh NNW 7.3 mph11.7 kmh 29.96 in1014.6 mb 0.00 in0.0 mm 0.00 in0.0 mm 0.00 in0.0 mm
12:44 AM 37.5°F3.1°C 39.7°F4.3°C 85% 0.8 mph NNW1.3 kmh NNW 0.8 mph1.3 kmh 29.96 in1014.6 mb 0.00 in0.0 mm 0.00 in0.0 mm 0.00 in0.0 mm
12:47 AM 37.4°F3.0°C 39.8°F4.3°C 85% 4.0 mph NNW6.4 kmh NNW 4.1 mph6.6 kmh 29.96 in1014.6 mb 0.00 in0.0 mm 0.00 in0.0 mm 0.00 in0.0 mm
12:50 AM 37.4°F3.0°C 39.8°F4.3°C 85% Calm Calm -- 29.96 in1014.6 mb 0.00 in0.0 mm 0.00 in0.0 mm 0.00 in0.0 mm
12:53 AM 37.4°F3.0°C 39.9°F4.4°C 85% 0.4 mph NNW0.6 kmh NNW 0.4 mph0.6 kmh 29.96 in1014.6 mb 0.00 in0.0 mm 0.00 in0.0 mm 0.00 in0.0 mm
12:56 AM 37.4°F3.0°C 39.9°F4.4°C 85% Calm Calm -- 29.96 in1014.6 mb 0.00 in0.0 mm 0.00 in0.0 mm 0.00 in0.0 mm
12:59 AM 37.3°F2.9°C 39.8°F4.3°C 85% 1.6 mph NW2.6 kmh NW 1.6 mph2.6 kmh 29.96 in1014.6 mb 0.00 in0.0 mm 0.00 in0.0 mm 0.00 in0.0 mm
01:02 AM 37.3°F2.9°C 39.7°F4.3°C 85% Calm Calm -- 29.96 in1014.6 mb 0.00 in0.0 mm 0.00 in0.0 mm 0.00 in0.0 mm
01:05 AM 37.3°F2.9°C 39.8°F4.3°C 85% 2.8 mph NW4.5 kmh NW 2.8 mph4.5 kmh 29.96 in1014.6 mb 0.00 in0.0 mm 0.00 in0.0 mm 0.00 in0.0 mm
01:08 AM 37.4°F3.0°C 39.9°F4.4°C 85% 4.4 mph NW7.1 kmh NW 4.4 mph7.1 kmh 29.96 in1014.6 mb 0.00 in0.0 mm 0.00 in0.0 mm 0.00 in0.0 mm
01:11 AM 37.4°F3.0°C 39.7°F4.3°C 85% 8.1 mph NNW13.0 kmh NNW 8.1 mph13.0 kmh 29.96 in1014.6 mb 0.00 in0.0 mm 0.00 in0.0 mm 0.00 in0.0 mm
01:14 AM 37.3°F2.9°C 39.8°F4.3°C 85% 3.2 mph WNW5.1 kmh WNW 3.2 mph5.1 kmh 29.97 in1014.9 mb 0.00 in0.0 mm 0.00 in0.0 mm 0.00 in0.0 mm
01:17 AM 37.3°F2.9°C 39.9°F4.4°C 85% 4.0 mph NW6.4 kmh NW 4.0 mph6.4 kmh 29.97 in1014.9 mb 0.00 in0.0 mm 0.00 in0.0 mm 0.00 in0.0 mm
01:20 AM 37.4°F3.0°C 39.9°F4.4°C 85% Calm Calm -- 29.97 in1014.9 mb 0.00 in0.0 mm 0.00 in0.0 mm 0.00 in0.0 mm
01:23 AM 37.3°F2.9°C 39.8°F4.3°C 85% 0.4 mph WNW0.6 kmh WNW 0.4 mph0.6 kmh 29.96 in1014.6 mb 0.00 in0.0 mm 0.00 in0.0 mm 0.00 in0.0 mm
01:26 AM 37.3°F2.9°C 39.8°F4.3°C 85% 0.8 mph WNW1.3 kmh WNW 0.8 mph1.3 kmh 29.97 in1014.9 mb 0.00 in0.0 mm 0.00 in0.0 mm 0.00 in0.0 mm
01:29 AM 37.2°F2.9°C 39.8°F4.3°C 85% 2.8 mph NNW4.5 kmh NNW 2.9 mph4.7 kmh 29.97 in1014.9 mb 0.00 in0.0 mm 0.00 in0.0 mm 0.00 in0.0 mm
01:32 AM 37.2°F2.9°C 39.7°F4.3°C 85% 0.8 mph NW1.3 kmh NW 0.8 mph1.3 kmh 29.97 in1014.9 mb 0.00 in0.0 mm 0.00 in0.0 mm 0.00 in0.0 mm
01:35 AM 37.2°F2.9°C 39.8°F4.3°C 85% 4.1 mph NW6.6 kmh NW 4.1 mph6.6 kmh 29.97 in1014.9 mb 0.00 in0.0 mm 0.00 in0.0 mm 0.00 in0.0 mm
01:38 AM 37.2°F2.9°C 40.0°F4.4°C 85% 1.2 mph W1.9 kmh W 1.2 mph1.9 kmh 29.97 in1014.9 mb 0.00 in0.0 mm 0.00 in0.0 mm 0.00 in0.0 mm
01:41 AM 37.2°F2.9°C 39.8°F4.3°C 85% 2.4 mph NW3.9 kmh NW 2.4 mph3.9 kmh 29.97 in1014.9 mb 0.00 in0.0 mm 0.00 in0.0 mm 0.00 in0.0 mm
01:44 AM 37.2°F2.9°C 39.7°F4.3°C 85% 0.4 mph NNW0.6 kmh NNW 0.4 mph0.6 kmh 29.97 in1014.9 mb 0.00 in0.0 mm 0.00 in0.0 mm 0.00 in0.0 mm
01:47 AM 37.2°F2.9°C 39.8°F4.3°C 85% 3.2 mph NNW5.1 kmh NNW 3.2 mph5.1 kmh 29.97 in1014.9 mb 0.00 in0.0 mm 0.00 in0.0 mm 0.00 in0.0 mm
01:50 AM 37.2°F2.9°C 39.7°F4.3°C 85% 4.0 mph WNW6.4 kmh WNW 4.1 mph6.6 kmh 29.97 in1014.9 mb 0.00 in0.0 mm 0.00 in0.0 mm 0.00 in0.0 mm
01:53 AM 37.2°F2.9°C 39.8°F4.3°C 85% 3.2 mph NW5.1 kmh NW 3.2 mph5.1 kmh 29.97 in1014.9 mb 0.00 in0.0 mm 0.00 in0.0 mm 0.00 in0.0 mm
01:56 AM 37.2°F2.9°C 39.7°F4.3°C 85% Calm Calm -- 29.98 in1015.2 mb 0.00 in0.0 mm 0.00 in0.0 mm 0.00 in0.0 mm
01:59 AM 37.1°F2.8°C 39.4°F4.1°C 85% 3.6 mph NW5.8 kmh NW 3.6 mph5.8 kmh 29.98 in1015.2 mb 0.00 in0.0 mm 0.00 in0.0 mm 0.00 in0.0 mm
02:02 AM 37.1°F2.8°C 39.6°F4.2°C 85% 4.8 mph WNW7.7 kmh WNW 4.9 mph7.9 kmh 29.98 in1015.2 mb 0.00 in0.0 mm 0.00 in0.0 mm 0.00 in0.0 mm
02:05 AM 37.0°F2.8°C 39.6°F4.2°C 85% 4.8 mph NW7.7 kmh NW 4.9 mph7.9 kmh 29.98 in1015.2 mb 0.00 in0.0 mm 0.00 in0.0 mm 0.00 in0.0 mm
02:08 AM 36.8°F2.7°C 39.5°F4.2°C 86% 2.8 mph 4.5 kmh 2.9 mph4.7 kmh 29.97 in1014.9 mb 0.00 in0.0 mm 0.00 in0.0 mm 0.00 in0.0 mm
02:11 AM 36.8°F2.7°C 39.7°F4.3°C 86% 0.4 mph NW0.6 kmh NW 0.4 mph0.6 kmh 29.98 in1015.2 mb 0.00 in0.0 mm 0.00 in0.0 mm 0.00 in0.0 mm
02:14 AM 36.8°F2.7°C 39.9°F4.4°C 86% 2.0 mph NNW3.2 kmh NNW 2.0 mph3.2 kmh 29.98 in1015.2 mb 0.00 in0.0 mm 0.00 in0.0 mm 0.00 in0.0 mm
02:17 AM 36.8°F2.7°C 39.8°F4.3°C 86% 1.6 mph 2.6 kmh 1.6 mph2.6 kmh 29.97 in1014.9 mb 0.00 in0.0 mm 0.00 in0.0 mm 0.00 in0.0 mm
02:20 AM 36.8°F2.7°C 39.2°F4.0°C 84% Calm Calm -- 29.98 in1015.2 mb 0.00 in0.0 mm 0.00 in0.0 mm 0.00 in0.0 mm
02:23 AM 36.8°F2.7°C 39.5°F4.2°C 85% 1.2 mph NW1.9 kmh NW 1.2 mph1.9 kmh 29.98 in1015.2 mb 0.00 in0.0 mm 0.00 in0.0 mm 0.00 in0.0 mm
02:26 AM 36.8°F2.7°C 39.9°F4.4°C 86% 2.8 mph NW4.5 kmh NW 2.9 mph4.7 kmh 29.98 in1015.2 mb 0.00 in0.0 mm 0.00 in0.0 mm 0.00 in0.0 mm
02:29 AM 36.8°F2.7°C 39.9°F4.4°C 86% 2.4 mph NW3.9 kmh NW 2.4 mph3.9 kmh 29.98 in1015.2 mb 0.00 in0.0 mm 0.00 in0.0 mm 0.00 in0.0 mm
02:32 AM 36.8°F2.7°C 39.6°F4.2°C 86% 2.0 mph NNW3.2 kmh NNW 2.0 mph3.2 kmh 29.98 in1015.2 mb 0.00 in0.0 mm 0.00 in0.0 mm 0.00 in0.0 mm
02:35 AM 36.7°F2.6°C 40.0°F4.4°C 87% 2.0 mph WNW3.2 kmh WNW 2.0 mph3.2 kmh 29.98 in1015.2 mb 0.00 in0.0 mm 0.00 in0.0 mm 0.00 in0.0 mm
02:38 AM 36.7°F2.6°C 39.8°F4.3°C 86% 1.2 mph NNW1.9 kmh NNW 1.2 mph1.9 kmh 29.98 in1015.2 mb 0.00 in0.0 mm 0.00 in0.0 mm 0.00 in0.0 mm
02:41 AM 36.7°F2.6°C 39.9°F4.4°C 86% Calm Calm -- 29.98 in1015.2 mb 0.00 in0.0 mm 0.00 in0.0 mm 0.00 in0.0 mm
02:44 AM 36.7°F2.6°C 39.9°F4.4°C 86% 0.8 mph W1.3 kmh W 0.8 mph1.3 kmh 29.98 in1015.2 mb 0.00 in0.0 mm 0.00 in0.0 mm 0.00 in0.0 mm
02:47 AM 36.7°F2.6°C 39.9°F4.4°C 86% Calm Calm -- 29.98 in1015.2 mb 0.00 in0.0 mm 0.00 in0.0 mm 0.00 in0.0 mm
02:50 AM 36.7°F2.6°C 39.8°F4.3°C 87% 0.8 mph NW1.3 kmh NW 0.8 mph1.3 kmh 29.98 in1015.2 mb 0.00 in0.0 mm 0.00 in0.0 mm 0.00 in0.0 mm
02:53 AM 36.7°F2.6°C 40.0°F4.4°C 87% 0.8 mph NW1.3 kmh NW 0.8 mph1.3 kmh 29.98 in1015.2 mb 0.00 in0.0 mm 0.00 in0.0 mm 0.02 in0.5 mm
02:56 AM 36.7°F2.6°C 39.7°F4.3°C 86% 2.8 mph NNW4.5 kmh NNW 2.8 mph4.5 kmh 29.98 in1015.2 mb 0.00 in0.0 mm 0.00 in0.0 mm 0.02 in0.5 mm
02:59 AM 36.7°F2.6°C 39.7°F4.3°C 86% Calm Calm -- 29.98 in1015.2 mb 0.00 in0.0 mm 0.00 in0.0 mm 0.02 in0.5 mm
03:02 AM 36.6°F2.6°C 39.9°F4.4°C 87% Calm Calm -- 29.98 in1015.2 mb 0.00 in0.0 mm 0.00 in0.0 mm 0.02 in0.5 mm
03:05 AM 36.6°F2.6°C 39.9°F4.4°C 87% Calm Calm -- 29.98 in1015.2 mb 0.00 in0.0 mm 0.00 in0.0 mm 0.02 in0.5 mm
03:08 AM 36.5°F2.5°C 39.9°F4.4°C 87% 4.4 mph NNW7.1 kmh NNW 4.5 mph7.2 kmh 29.98 in1015.2 mb 0.00 in0.0 mm 0.00 in0.0 mm 0.02 in0.5 mm
03:11 AM 36.5°F2.5°C 39.7°F4.3°C 87% 0.4 mph NNW0.6 kmh NNW 0.4 mph0.6 kmh 29.98 in1015.2 mb 0.00 in0.0 mm 0.00 in0.0 mm 0.02 in0.5 mm
03:14 AM 36.5°F2.5°C 39.7°F4.3°C 87% 1.6 mph NNW2.6 kmh NNW 1.6 mph2.6 kmh 29.98 in1015.2 mb 0.00 in0.0 mm 0.00 in0.0 mm 0.02 in0.5 mm
03:17 AM 36.4°F2.4°C 39.8°F4.3°C 87% 1.6 mph 2.6 kmh 1.6 mph2.6 kmh 29.98 in1015.2 mb 0.00 in0.0 mm 0.00 in0.0 mm 0.02 in0.5 mm
03:20 AM 36.4°F2.4°C 39.7°F4.3°C 87% 0.8 mph NW1.3 kmh NW 0.8 mph1.3 kmh 29.98 in1015.2 mb 0.00 in0.0 mm 0.00 in0.0 mm 0.02 in0.5 mm
03:23 AM 36.3°F2.4°C 39.9°F4.4°C 87% Calm Calm -- 29.98 in1015.2 mb 0.00 in0.0 mm 0.00 in0.0 mm 0.02 in0.5 mm
03:26 AM 36.3°F2.4°C 39.6°F4.2°C 87% Calm Calm -- 29.98 in1015.2 mb 0.00 in0.0 mm 0.00 in0.0 mm 0.02 in0.5 mm
03:29 AM 36.3°F2.4°C 39.8°F4.3°C 87% Calm Calm -- 29.98 in1015.2 mb 0.00 in0.0 mm 0.00 in0.0 mm 0.02 in0.5 mm
03:32 AM 36.3°F2.4°C 39.7°F4.3°C 87% Calm Calm -- 29.98 in1015.2 mb 0.00 in0.0 mm 0.00 in0.0 mm 0.02 in0.5 mm
03:35 AM 36.3°F2.4°C 40.0°F4.4°C 88% Calm Calm -- 29.98 in1015.2 mb 0.00 in0.0 mm 0.00 in0.0 mm 0.02 in0.5 mm
03:38 AM 36.2°F2.3°C 39.7°F4.3°C 87% Calm Calm -- 29.98 in1015.2 mb 0.00 in0.0 mm 0.00 in0.0 mm 0.02 in0.5 mm
03:44 AM 36.2°F2.3°C 40.1°F4.5°C 88% Calm Calm -- 29.98 in1015.2 mb 0.00 in0.0 mm 0.00 in0.0 mm 0.02 in0.5 mm
03:47 AM 36.2°F2.3°C 39.9°F4.4°C 87% Calm Calm -- 29.98 in1015.2 mb 0.00 in0.0 mm 0.00 in0.0 mm 0.02 in0.5 mm
03:50 AM 36.1°F2.3°C 39.8°F4.3°C 88% Calm Calm -- 29.98 in1015.2 mb 0.00 in0.0 mm 0.00 in0.0 mm 0.02 in0.5 mm
03:53 AM 36.1°F2.3°C 40.1°F4.5°C 88% Calm Calm -- 29.98 in1015.2 mb 0.00 in0.0 mm 0.00 in0.0 mm 0.02 in0.5 mm
03:56 AM 36.1°F2.3°C 40.0°F4.4°C 88% Calm Calm -- 29.99 in1015.6 mb 0.00 in0.0 mm 0.00 in0.0 mm 0.02 in0.5 mm
03:59 AM 36.2°F2.3°C 39.8°F4.3°C 88% Calm Calm -- 29.98 in1015.2 mb 0.00 in0.0 mm 0.00 in0.0 mm 0.02 in0.5 mm
04:02 AM 36.2°F2.3°C 39.8°F4.3°C 88% 3.2 mph W5.1 kmh W 3.2 mph5.1 kmh 29.98 in1015.2 mb 0.00 in0.0 mm 0.00 in0.0 mm 0.02 in0.5 mm
04:05 AM 36.2°F2.3°C 39.9°F4.4°C 88% Calm Calm -- 29.98 in1015.2 mb 0.00 in0.0 mm 0.00 in0.0 mm 0.02 in0.5 mm
04:08 AM 36.3°F2.4°C 39.7°F4.3°C 88% 1.6 mph NW2.6 kmh NW 1.6 mph2.6 kmh 29.98 in1015.2 mb 0.00 in0.0 mm 0.00 in0.0 mm 0.02 in0.5 mm
04:11 AM 36.3°F2.4°C 40.1°F4.5°C 88% Calm Calm -- 29.98 in1015.2 mb 0.00 in0.0 mm 0.00 in0.0 mm 0.02 in0.5 mm
04:14 AM 36.4°F2.4°C 39.8°F4.3°C 88% 2.4 mph NNW3.9 kmh NNW 2.4 mph3.9 kmh 29.98 in1015.2 mb 0.00 in0.0 mm 0.00 in0.0 mm 0.02 in0.5 mm
04:17 AM 36.3°F2.4°C 39.8°F4.3°C 88% 5.3 mph NNW8.5 kmh NNW 5.3 mph8.5 kmh 29.99 in1015.6 mb 0.00 in0.0 mm 0.00 in0.0 mm 0.02 in0.5 mm
04:20 AM 35.9°F2.2°C 39.6°F4.2°C 87% 5.3 mph NW8.5 kmh NW 5.3 mph8.5 kmh 29.99 in1015.6 mb 0.00 in0.0 mm 0.00 in0.0 mm 0.02 in0.5 mm
04:23 AM 35.7°F2.1°C 39.6°F4.2°C 88% 5.3 mph WNW8.5 kmh WNW 5.3 mph8.5 kmh 29.99 in1015.6 mb 0.00 in0.0 mm 0.00 in0.0 mm 0.02 in0.5 mm
04:26 AM 35.6°F2.0°C 39.2°F4.0°C 87% 3.2 mph NW5.1 kmh NW 3.3 mph5.3 kmh 29.99 in1015.6 mb 0.00 in0.0 mm 0.00 in0.0 mm 0.02 in0.5 mm
04:29 AM 35.5°F1.9°C 39.2°F4.0°C 88% 4.0 mph NW6.4 kmh NW 4.1 mph6.6 kmh 29.99 in1015.6 mb 0.00 in0.0 mm 0.00 in0.0 mm 0.02 in0.5 mm
04:32 AM 35.5°F1.9°C 39.2°F4.0°C 87% 3.6 mph NW5.8 kmh NW 3.6 mph5.8 kmh 29.99 in1015.6 mb 0.00 in0.0 mm 0.00 in0.0 mm 0.02 in0.5 mm
04:35 AM 35.5°F1.9°C 39.2°F4.0°C 88% 0.8 mph 1.3 kmh 0.8 mph1.3 kmh 29.99 in1015.6 mb 0.00 in0.0 mm 0.00 in0.0 mm 0.02 in0.5 mm
04:38 AM 35.5°F1.9°C 39.5°F4.2°C 87% 1.6 mph 2.6 kmh 1.6 mph2.6 kmh 29.99 in1015.6 mb 0.00 in0.0 mm 0.00 in0.0 mm 0.02 in0.5 mm
04:41 AM 35.5°F1.9°C 39.3°F4.1°C 87% 3.2 mph NW5.1 kmh NW 3.3 mph5.3 kmh 30.00 in1015.9 mb 0.00 in0.0 mm 0.00 in0.0 mm 0.02 in0.5 mm
04:44 AM 35.6°F2.0°C 39.5°F4.2°C 87% 0.4 mph NW0.6 kmh NW 0.4 mph0.6 kmh 29.99 in1015.6 mb 0.00 in0.0 mm 0.00 in0.0 mm 0.02 in0.5 mm
04:47 AM 35.6°F2.0°C 39.2°F4.0°C 88% 1.2 mph NW1.9 kmh NW 1.2 mph1.9 kmh 29.99 in1015.6 mb 0.00 in0.0 mm 0.00 in0.0 mm 0.02 in0.5 mm
04:50 AM 35.7°F2.1°C 39.4°F4.1°C 88% 3.2 mph NNW5.1 kmh NNW 3.3 mph5.3 kmh 30.00 in1015.9 mb 0.00 in0.0 mm 0.00 in0.0 mm 0.02 in0.5 mm
04:53 AM 35.7°F2.1°C 39.4°F4.1°C 88% 2.0 mph NW3.2 kmh NW 2.0 mph3.2 kmh 30.00 in1015.9 mb 0.00 in0.0 mm 0.00 in0.0 mm 0.02 in0.5 mm
04:56 AM 35.7°F2.1°C 39.4°F4.1°C 88% 0.4 mph NNW0.6 kmh NNW 0.4 mph0.6 kmh 30.00 in1015.9 mb 0.00 in0.0 mm 0.00 in0.0 mm 0.02 in0.5 mm
04:59 AM 35.7°F2.1°C 39.3°F4.1°C 88% 0.8 mph 1.3 kmh 0.8 mph1.3 kmh 30.00 in1015.9 mb 0.00 in0.0 mm 0.00 in0.0 mm 0.02 in0.5 mm
05:02 AM 35.8°F2.1°C 39.5°F4.2°C 88% 0.4 mph 0.6 kmh 0.4 mph0.6 kmh 30.00 in1015.9 mb 0.00 in0.0 mm 0.00 in0.0 mm 0.02 in0.5 mm
05:05 AM 35.8°F2.1°C 39.4°F4.1°C 88% 1.2 mph NNW1.9 kmh NNW 1.2 mph1.9 kmh 30.00 in1015.9 mb 0.00 in0.0 mm 0.00 in0.0 mm 0.02 in0.5 mm
05:08 AM 35.8°F2.1°C 39.4°F4.1°C 88% 2.4 mph NNW3.9 kmh NNW 2.4 mph3.9 kmh 30.00 in1015.9 mb 0.00 in0.0 mm 0.00 in0.0 mm 0.02 in0.5 mm
05:11 AM 35.8°F2.1°C 39.5°F4.2°C 88% 2.4 mph NW3.9 kmh NW 2.4 mph3.9 kmh 30.00 in1015.9 mb 0.00 in0.0 mm 0.00 in0.0 mm 0.02 in0.5 mm
05:14 AM 35.9°F2.2°C 39.6°F4.2°C 88% Calm Calm -- 30.00 in1015.9 mb 0.00 in0.0 mm 0.00 in0.0 mm 0.02 in0.5 mm
05:17 AM 36.1°F2.3°C 39.6°F4.2°C 88% 1.2 mph NW1.9 kmh NW 1.2 mph1.9 kmh 30.00 in1015.9 mb 0.00 in0.0 mm 0.00 in0.0 mm 0.02 in0.5 mm
05:20 AM 35.9°F2.2°C 39.6°F4.2°C 88% Calm Calm -- 29.99 in1015.6 mb 0.00 in0.0 mm 0.00 in0.0 mm 0.04 in1.0 mm
05:23 AM 35.9°F2.2°C 39.7°F4.3°C 88% Calm Calm -- 29.99 in1015.6 mb 0.00 in0.0 mm 0.00 in0.0 mm 0.04 in1.0 mm
05:26 AM 35.8°F2.1°C 39.8°F4.3°C 88% Calm Calm -- 29.99 in1015.6 mb 0.00 in0.0 mm 0.00 in0.0 mm 0.04 in1.0 mm
05:29 AM 35.9°F2.2°C 39.7°F4.3°C 88% Calm Calm -- 29.99 in1015.6 mb 0.00 in0.0 mm 0.00 in0.0 mm 0.04 in1.0 mm
05:32 AM 35.9°F2.2°C 39.6°F4.2°C 88% Calm Calm -- 29.99 in1015.6 mb 0.00 in0.0 mm 0.00 in0.0 mm 0.04 in1.0 mm
05:35 AM 36.1°F2.3°C 39.5°F4.2°C 87% Calm Calm -- 29.99 in1015.6 mb 0.00 in0.0 mm 0.00 in0.0 mm 0.04 in1.0 mm
05:38 AM 36.1°F2.3°C 39.7°F4.3°C 88% Calm Calm -- 29.99 in1015.6 mb 0.00 in0.0 mm 0.00 in0.0 mm 0.04 in1.0 mm
05:41 AM 35.9°F2.2°C 39.7°F4.3°C 88% Calm Calm -- 29.99 in1015.6 mb 0.00 in0.0 mm 0.00 in0.0 mm 0.04 in1.0 mm
05:44 AM 36.1°F2.3°C 39.5°F4.2°C 88% Calm Calm -- 29.98 in1015.2 mb 0.00 in0.0 mm 0.00 in0.0 mm 0.04 in1.0 mm
05:47 AM 35.9°F2.2°C 39.7°F4.3°C 88% Calm Calm -- 29.99 in1015.6 mb 0.00 in0.0 mm 0.00 in0.0 mm 0.04 in1.0 mm
05:50 AM 35.9°F2.2°C 39.8°F4.3°C 89% Calm Calm -- 29.99 in1015.6 mb 0.00 in0.0 mm 0.00 in0.0 mm 0.04 in1.0 mm
05:53 AM 36.1°F2.3°C 40.0°F4.4°C 89% Calm Calm -- 29.99 in1015.6 mb 0.00 in0.0 mm 0.00 in0.0 mm 0.04 in1.0 mm
05:56 AM 36.1°F2.3°C 39.7°F4.3°C 88% Calm Calm -- 29.99 in1015.6 mb 0.00 in0.0 mm 0.00 in0.0 mm 0.04 in1.0 mm
05:59 AM 36.1°F2.3°C 39.7°F4.3°C 88% Calm Calm -- 29.99 in1015.6 mb 0.00 in0.0 mm 0.00 in0.0 mm 0.04 in1.0 mm
06:05 AM 36.1°F2.3°C 39.9°F4.4°C 89% 2.0 mph NE3.2 kmh NE 2.0 mph3.2 kmh 30.00 in1015.9 mb 0.00 in0.0 mm 0.00 in0.0 mm 0.04 in1.0 mm
06:08 AM 36.2°F2.3°C 39.6°F4.2°C 88% Calm Calm -- 29.99 in1015.6 mb 0.00 in0.0 mm 0.00 in0.0 mm 0.04 in1.0 mm
06:11 AM 36.1°F2.3°C 39.8°F4.3°C 89% Calm Calm -- 29.99 in1015.6 mb 0.00 in0.0 mm 0.00 in0.0 mm 0.04 in1.0 mm
06:14 AM 36.1°F2.3°C 39.9°F4.4°C 89% Calm Calm -- 29.99 in1015.6 mb 0.00 in0.0 mm 0.00 in0.0 mm 0.04 in1.0 mm
06:17 AM 36.1°F2.3°C 39.7°F4.3°C 89% Calm Calm -- 29.99 in1015.6 mb 0.00 in0.0 mm 0.00 in0.0 mm 0.04 in1.0 mm
06:20 AM 35.9°F2.2°C 39.6°F4.2°C 89% 1.6 mph NNE2.6 kmh NNE 1.6 mph2.6 kmh 29.99 in1015.6 mb 0.00 in0.0 mm 0.00 in0.0 mm 0.04 in1.0 mm
06:23 AM 35.8°F2.1°C 39.7°F4.3°C 89% 0.4 mph 0.6 kmh 0.4 mph0.6 kmh 29.99 in1015.6 mb 0.00 in0.0 mm 0.00 in0.0 mm 0.04 in1.0 mm
06:26 AM 35.9°F2.2°C 39.6°F4.2°C 89% Calm Calm -- 29.99 in1015.6 mb 0.00 in0.0 mm 0.00 in0.0 mm 0.04 in1.0 mm
06:29 AM 35.9°F2.2°C 39.3°F4.1°C 88% Calm Calm -- 30.00 in1015.9 mb 0.00 in0.0 mm 0.00 in0.0 mm 0.04 in1.0 mm
06:32 AM 35.9°F2.2°C 39.8°F4.3°C 89% Calm Calm -- 29.99 in1015.6 mb 0.00 in0.0 mm 0.00 in0.0 mm 0.04 in1.0 mm
06:35 AM 35.9°F2.2°C 39.8°F4.3°C 89% Calm Calm -- 29.99 in1015.6 mb 0.00 in0.0 mm 0.00 in0.0 mm 0.04 in1.0 mm
06:38 AM 36.1°F2.3°C 39.8°F4.3°C 89% Calm Calm -- 29.99 in1015.6 mb 0.00 in0.0 mm 0.00 in0.0 mm 0.04 in1.0 mm
06:41 AM 36.1°F2.3°C 39.7°F4.3°C 89% Calm Calm -- 29.99 in1015.6 mb 0.00 in0.0 mm 0.00 in0.0 mm 0.04 in1.0 mm
06:44 AM 36.1°F2.3°C 39.7°F4.3°C 88% Calm Calm -- 30.00 in1015.9 mb 0.00 in0.0 mm 0.00 in0.0 mm 0.04 in1.0 mm
06:47 AM 35.9°F2.2°C 40.2°F4.6°C 89% Calm Calm -- 30.00 in1015.9 mb 0.00 in0.0 mm 0.00 in0.0 mm 0.04 in1.0 mm
06:50 AM 36.1°F2.3°C 40.0°F4.4°C 89% Calm Calm -- 29.99 in1015.6 mb 0.00 in0.0 mm 0.00 in0.0 mm 0.04 in1.0 mm
06:53 AM 36.2°F2.3°C 39.9°F4.4°C 88% Calm Calm -- 29.99 in1015.6 mb 0.00 in0.0 mm 0.00 in0.0 mm 0.04 in1.0 mm
06:56 AM 36.3°F2.4°C 40.1°F4.5°C 89% Calm Calm -- 29.99 in1015.6 mb 0.00 in0.0 mm 0.00 in0.0 mm 0.04 in1.0 mm
06:59 AM 36.4°F2.4°C 40.1°F4.5°C 89% Calm Calm -- 29.99 in1015.6 mb 0.00 in0.0 mm 0.00 in0.0 mm 0.04 in1.0 mm
07:02 AM 36.5°F2.5°C 40.0°F4.4°C 90% 2.8 mph NNW4.5 kmh NNW 2.9 mph4.7 kmh 30.00 in1015.9 mb 0.00 in0.0 mm 0.00 in0.0 mm 0.04 in1.0 mm
07:05 AM 36.6°F2.6°C 40.2°F4.6°C 90% 2.8 mph NW4.5 kmh NW 2.9 mph4.7 kmh 30.00 in1015.9 mb 0.00 in0.0 mm 0.00 in0.0 mm 0.04 in1.0 mm
07:08 AM 36.6°F2.6°C 40.3°F4.6°C 90% 3.6 mph WNW5.8 kmh WNW 3.7 mph6.0 kmh 30.00 in1015.9 mb 0.00 in0.0 mm 0.00 in0.0 mm 0.04 in1.0 mm
07:11 AM 36.7°F2.6°C 40.1°F4.5°C 89% 4.4 mph WNW7.1 kmh WNW 4.4 mph7.1 kmh 30.00 in1015.9 mb 0.00 in0.0 mm 0.00 in0.0 mm 0.04 in1.0 mm
07:14 AM 36.6°F2.6°C 40.3°F4.6°C 90% 2.0 mph NNW3.2 kmh NNW 2.0 mph3.2 kmh 30.00 in1015.9 mb 0.00 in0.0 mm 0.00 in0.0 mm 0.04 in1.0 mm
07:17 AM 36.6°F2.6°C 40.3°F4.6°C 89% Calm Calm -- 30.00 in1015.9 mb 0.00 in0.0 mm 0.00 in0.0 mm 0.04 in1.0 mm
07:20 AM 36.7°F2.6°C 40.2°F4.6°C 90% 2.4 mph NW3.9 kmh NW 2.4 mph3.9 kmh 30.00 in1015.9 mb 0.00 in0.0 mm 0.00 in0.0 mm 0.04 in1.0 mm
07:23 AM 36.7°F2.6°C 40.2°F4.6°C 89% 5.2 mph NNW8.4 kmh NNW 5.2 mph8.4 kmh 30.01 in1016.3 mb 0.00 in0.0 mm 0.00 in0.0 mm 0.04 in1.0 mm
07:26 AM 36.8°F2.7°C 40.3°F4.6°C 90% 3.6 mph NW5.8 kmh NW 3.7 mph6.0 kmh 30.01 in1016.3 mb 0.00 in0.0 mm 0.00 in0.0 mm 0.04 in1.0 mm
07:29 AM 36.7°F2.6°C 40.1°F4.5°C 90% 0.8 mph WNW1.3 kmh WNW 0.8 mph1.3 kmh 30.00 in1015.9 mb 0.00 in0.0 mm 0.00 in0.0 mm 0.04 in1.0 mm
07:32 AM 36.7°F2.6°C 40.4°F4.7°C 90% 2.0 mph NNW3.2 kmh NNW 2.0 mph3.2 kmh 30.01 in1016.3 mb 0.00 in0.0 mm 0.00 in0.0 mm 0.04 in1.0 mm
07:35 AM 36.7°F2.6°C 40.5°F4.7°C 90% 4.0 mph WNW6.4 kmh WNW 4.1 mph6.6 kmh 30.01 in1016.3 mb 0.00 in0.0 mm 0.00 in0.0 mm 0.04 in1.0 mm
07:38 AM 36.7°F2.6°C 40.5°F4.7°C 90% 2.8 mph NW4.5 kmh NW 2.8 mph4.5 kmh 30.01 in1016.3 mb 0.00 in0.0 mm 0.00 in0.0 mm 0.04 in1.0 mm
07:41 AM 36.7°F2.6°C 40.3°F4.6°C 90% 0.8 mph NW1.3 kmh NW 0.8 mph1.3 kmh 30.01 in1016.3 mb 0.00 in0.0 mm 0.00 in0.0 mm 0.04 in1.0 mm
07:44 AM 36.7°F2.6°C 40.6°F4.8°C 90% 3.2 mph NNW5.1 kmh NNW 3.3 mph5.3 kmh 30.01 in1016.3 mb 0.00 in0.0 mm 0.00 in0.0 mm 0.04 in1.0 mm
07:47 AM 36.7°F2.6°C 40.5°F4.7°C 90% Calm Calm -- 30.01 in1016.3 mb 0.00 in0.0 mm 0.00 in0.0 mm 0.04 in1.0 mm
07:50 AM 36.7°F2.6°C 40.3°F4.6°C 90% 3.2 mph WNW5.1 kmh WNW 3.2 mph5.1 kmh 30.01 in1016.3 mb 0.00 in0.0 mm 0.00 in0.0 mm 0.06 in1.5 mm
07:53 AM 36.7°F2.6°C 40.5°F4.7°C 90% 0.8 mph W1.3 kmh W 0.8 mph1.3 kmh 30.01 in1016.3 mb 0.00 in0.0 mm 0.00 in0.0 mm 0.06 in1.5 mm
07:56 AM 36.7°F2.6°C 40.5°F4.7°C 90% 1.2 mph W1.9 kmh W 1.2 mph1.9 kmh 30.01 in1016.3 mb 0.00 in0.0 mm 0.00 in0.0 mm 0.06 in1.5 mm
07:59 AM 36.7°F2.6°C 40.6°F4.8°C 90% 5.2 mph WNW8.4 kmh WNW 5.3 mph8.5 kmh 30.01 in1016.3 mb 0.00 in0.0 mm 0.00 in0.0 mm 0.06 in1.5 mm
08:02 AM 36.7°F2.6°C 40.4°F4.7°C 90% 2.8 mph NW4.5 kmh NW 2.8 mph4.5 kmh 30.01 in1016.3 mb 0.00 in0.0 mm 0.00 in0.0 mm 0.06 in1.5 mm
08:05 AM 36.7°F2.6°C 40.3°F4.6°C 90% 2.0 mph NW3.2 kmh NW 2.0 mph3.2 kmh 30.01 in1016.3 mb 0.00 in0.0 mm 0.00 in0.0 mm 0.06 in1.5 mm
08:08 AM 36.7°F2.6°C 40.6°F4.8°C 90% 2.4 mph NNW3.9 kmh NNW 2.5 mph4.0 kmh 30.01 in1016.3 mb 0.00 in0.0 mm 0.00 in0.0 mm 0.06 in1.5 mm
08:11 AM 36.8°F2.7°C 40.4°F4.7°C 90% Calm Calm -- 30.01 in1016.3 mb 0.00 in0.0 mm 0.00 in0.0 mm 0.06 in1.5 mm
08:14 AM 36.8°F2.7°C 40.5°F4.7°C 90% 3.2 mph NW5.1 kmh NW 3.3 mph5.3 kmh 30.01 in1016.3 mb 0.00 in0.0 mm 0.00 in0.0 mm 0.06 in1.5 mm
08:17 AM 36.8°F2.7°C 40.6°F4.8°C 90% 1.6 mph W2.6 kmh W 1.6 mph2.6 kmh 30.01 in1016.3 mb 0.00 in0.0 mm 0.00 in0.0 mm 0.06 in1.5 mm
08:20 AM 36.8°F2.7°C 40.7°F4.8°C 90% 0.8 mph NW1.3 kmh NW 0.8 mph1.3 kmh 30.01 in1016.3 mb 0.00 in0.0 mm 0.00 in0.0 mm 0.06 in1.5 mm
08:23 AM 36.8°F2.7°C 40.5°F4.7°C 90% 3.2 mph WNW5.1 kmh WNW 3.3 mph5.3 kmh 30.01 in1016.3 mb 0.00 in0.0 mm 0.00 in0.0 mm 0.06 in1.5 mm
08:29 AM 37.0°F2.8°C 40.8°F4.9°C 90% 1.6 mph NNW2.6 kmh NNW 1.6 mph2.6 kmh 30.01 in1016.3 mb 0.00 in0.0 mm 0.00 in0.0 mm 0.06 in1.5 mm
08:32 AM 37.0°F2.8°C 40.8°F4.9°C 90% 1.6 mph NW2.6 kmh NW 1.6 mph2.6 kmh 30.01 in1016.3 mb 0.00 in0.0 mm 0.00 in0.0 mm 0.06 in1.5 mm
08:35 AM 37.0°F2.8°C 40.8°F4.9°C 90% 2.8 mph NW4.5 kmh NW 2.9 mph4.7 kmh 30.01 in1016.3 mb 0.00 in0.0 mm 0.00 in0.0 mm 0.06 in1.5 mm
08:38 AM 37.0°F2.8°C 40.5°F4.7°C 90% 0.4 mph WNW0.6 kmh WNW 0.4 mph0.6 kmh 30.01 in1016.3 mb 0.00 in0.0 mm 0.00 in0.0 mm 0.06 in1.5 mm
08:41 AM 37.1°F2.8°C 40.6°F4.8°C 90% 4.0 mph NW6.4 kmh NW 4.1 mph6.6 kmh 30.01 in1016.3 mb 0.00 in0.0 mm 0.00 in0.0 mm 0.06 in1.5 mm
08:44 AM 37.1°F2.8°C 40.6°F4.8°C 90% 3.6 mph NNW5.8 kmh NNW 3.7 mph6.0 kmh 30.01 in1016.3 mb 0.00 in0.0 mm 0.00 in0.0 mm 0.06 in1.5 mm
08:47 AM 37.1°F2.8°C 40.6°F4.8°C 90% 3.6 mph WNW5.8 kmh WNW 3.6 mph5.8 kmh 30.01 in1016.3 mb 0.00 in0.0 mm 0.00 in0.0 mm 0.06 in1.5 mm
08:50 AM 37.0°F2.8°C 40.8°F4.9°C 90% 0.4 mph NW0.6 kmh NW 0.4 mph0.6 kmh 30.01 in1016.3 mb 0.00 in0.0 mm 0.00 in0.0 mm 0.06 in1.5 mm
08:53 AM 37.1°F2.8°C 40.7°F4.8°C 90% 3.2 mph W5.1 kmh W 3.2 mph5.1 kmh 30.01 in1016.3 mb 0.00 in0.0 mm 0.00 in0.0 mm 0.06 in1.5 mm
08:56 AM 37.1°F2.8°C 40.7°F4.8°C 91% 4.8 mph NNW7.7 kmh NNW 4.8 mph7.7 kmh 30.01 in1016.3 mb 0.00 in0.0 mm 0.00 in0.0 mm 0.06 in1.5 mm
08:59 AM 37.2°F2.9°C 40.7°F4.8°C 90% 3.6 mph NW5.8 kmh NW 3.6 mph5.8 kmh 30.01 in1016.3 mb 0.00 in0.0 mm 0.00 in0.0 mm 0.06 in1.5 mm
09:02 AM 37.2°F2.9°C 41.0°F5.0°C 90% 4.0 mph NW6.4 kmh NW 4.0 mph6.4 kmh 30.01 in1016.3 mb 0.00 in0.0 mm 0.00 in0.0 mm 0.06 in1.5 mm
09:05 AM 37.2°F2.9°C 40.7°F4.8°C 90% 3.2 mph NNW5.1 kmh NNW 3.2 mph5.1 kmh 30.01 in1016.3 mb 0.00 in0.0 mm 0.00 in0.0 mm 0.06 in1.5 mm
09:08 AM 37.3°F2.9°C 40.8°F4.9°C 90% 1.6 mph W2.6 kmh W 1.6 mph2.6 kmh 30.01 in1016.3 mb 0.00 in0.0 mm 0.00 in0.0 mm 0.06 in1.5 mm
09:11 AM 37.3°F2.9°C 40.9°F4.9°C 90% 2.8 mph NW4.5 kmh NW 2.9 mph4.7 kmh 30.01 in1016.3 mb 0.00 in0.0 mm 0.00 in0.0 mm 0.06 in1.5 mm
09:14 AM 37.3°F2.9°C 40.6°F4.8°C 90% 2.4 mph W3.9 kmh W 2.4 mph3.9 kmh 30.01 in1016.3 mb 0.00 in0.0 mm 0.00 in0.0 mm 0.06 in1.5 mm
09:17 AM 37.3°F2.9°C 40.7°F4.8°C 90% 1.6 mph NNW2.6 kmh NNW 1.6 mph2.6 kmh 30.01 in1016.3 mb 0.00 in0.0 mm 0.00 in0.0 mm 0.06 in1.5 mm
09:20 AM 37.4°F3.0°C 40.4°F4.7°C 89% 3.6 mph NW5.8 kmh NW 3.7 mph6.0 kmh 30.01 in1016.3 mb 0.00 in0.0 mm 0.00 in0.0 mm 0.06 in1.5 mm
09:23 AM 37.4°F3.0°C 40.8°F4.9°C 90% 4.8 mph NW7.7 kmh NW 4.8 mph7.7 kmh 30.01 in1016.3 mb 0.00 in0.0 mm 0.00 in0.0 mm 0.06 in1.5 mm
09:26 AM 37.4°F3.0°C 40.5°F4.7°C 89% 5.5 mph W8.9 kmh W 5.6 mph9.0 kmh 30.02 in1016.6 mb 0.00 in0.0 mm 0.00 in0.0 mm 0.06 in1.5 mm
09:29 AM 37.5°F3.1°C 40.9°F4.9°C 90% 2.0 mph NNW3.2 kmh NNW 2.0 mph3.2 kmh 30.02 in1016.6 mb 0.00 in0.0 mm 0.00 in0.0 mm 0.06 in1.5 mm
09:32 AM 37.5°F3.1°C 40.7°F4.8°C 90% 6.3 mph NW10.1 kmh NW 6.4 mph10.3 kmh 30.02 in1016.6 mb 0.00 in0.0 mm 0.00 in0.0 mm 0.06 in1.5 mm
09:35 AM 37.6°F3.1°C 40.3°F4.6°C 88% 3.5 mph W5.6 kmh W 3.7 mph6.0 kmh 30.02 in1016.6 mb 0.00 in0.0 mm 0.00 in0.0 mm 0.06 in1.5 mm
09:38 AM 37.5°F3.1°C 41.0°F5.0°C 90% 5.2 mph WNW8.4 kmh WNW 5.2 mph8.4 kmh 30.02 in1016.6 mb 0.00 in0.0 mm 0.00 in0.0 mm 0.06 in1.5 mm
09:41 AM 37.5°F3.1°C 40.8°F4.9°C 90% 2.4 mph NNW3.9 kmh NNW 2.4 mph3.9 kmh 30.02 in1016.6 mb 0.00 in0.0 mm 0.00 in0.0 mm 0.06 in1.5 mm
09:44 AM 37.6°F3.1°C 40.7°F4.8°C 89% 4.4 mph NW7.1 kmh NW 4.5 mph7.2 kmh 30.02 in1016.6 mb 0.00 in0.0 mm 0.00 in0.0 mm 0.06 in1.5 mm
09:47 AM 37.6°F3.1°C 40.7°F4.8°C 89% 3.6 mph 5.8 kmh 3.6 mph5.8 kmh 30.02 in1016.6 mb 0.00 in0.0 mm 0.00 in0.0 mm 0.06 in1.5 mm
09:50 AM 37.5°F3.1°C 40.8°F4.9°C 89% 3.6 mph NW5.8 kmh NW 3.7 mph6.0 kmh 30.02 in1016.6 mb 0.00 in0.0 mm 0.00 in0.0 mm 0.06 in1.5 mm
09:53 AM 37.6°F3.1°C 40.9°F4.9°C 89% 0.8 mph WNW1.3 kmh WNW 0.8 mph1.3 kmh 30.02 in1016.6 mb 0.00 in0.0 mm 0.00 in0.0 mm 0.06 in1.5 mm
09:56 AM 37.6°F3.1°C 40.5°F4.7°C 89% 4.4 mph NW7.1 kmh NW 4.4 mph7.1 kmh 30.02 in1016.6 mb 0.00 in0.0 mm 0.00 in0.0 mm 0.06 in1.5 mm
09:59 AM 37.6°F3.1°C 40.7°F4.8°C 89% 3.6 mph NNW5.8 kmh NNW 3.7 mph6.0 kmh 30.02 in1016.6 mb 0.00 in0.0 mm 0.00 in0.0 mm 0.06 in1.5 mm
10:02 AM 37.6°F3.1°C 40.6°F4.8°C 89% 2.8 mph NW4.5 kmh NW 2.8 mph4.5 kmh 30.02 in1016.6 mb 0.00 in0.0 mm 0.00 in0.0 mm 0.06 in1.5 mm
10:05 AM 37.5°F3.1°C 40.7°F4.8°C 89% 5.6 mph NW9.0 kmh NW 5.6 mph9.0 kmh 30.03 in1016.9 mb 0.00 in0.0 mm 0.00 in0.0 mm 0.06 in1.5 mm
10:08 AM 37.5°F3.1°C 40.7°F4.8°C 89% 7.9 mph NNW12.7 kmh NNW 8.0 mph12.9 kmh 30.02 in1016.6 mb 0.00 in0.0 mm 0.00 in0.0 mm 0.06 in1.5 mm
10:11 AM 37.5°F3.1°C 40.7°F4.8°C 88% 2.4 mph NW3.9 kmh NW 2.5 mph4.0 kmh 30.02 in1016.6 mb 0.00 in0.0 mm 0.00 in0.0 mm 0.06 in1.5 mm
10:14 AM 37.5°F3.1°C 40.4°F4.7°C 88% 6.3 mph NW10.1 kmh NW 6.3 mph10.1 kmh 30.01 in1016.3 mb 0.00 in0.0 mm 0.00 in0.0 mm 0.06 in1.5 mm
10:17 AM 37.5°F3.1°C 40.3°F4.6°C 88% 6.5 mph NW10.5 kmh NW 6.5 mph10.5 kmh 30.02 in1016.6 mb 0.00 in0.0 mm 0.00 in0.0 mm 0.06 in1.5 mm
10:20 AM 37.5°F3.1°C 40.6°F4.8°C 88% 1.6 mph WNW2.6 kmh WNW 1.6 mph2.6 kmh 30.02 in1016.6 mb 0.00 in0.0 mm 0.00 in0.0 mm 0.06 in1.5 mm
10:23 AM 37.5°F3.1°C 40.4°F4.7°C 88% 2.8 mph WNW4.5 kmh WNW 2.8 mph4.5 kmh 30.02 in1016.6 mb 0.00 in0.0 mm 0.00 in0.0 mm 0.06 in1.5 mm
10:26 AM 37.5°F3.1°C 40.6°F4.8°C 88% 5.3 mph NNW8.5 kmh NNW 5.3 mph8.5 kmh 30.02 in1016.6 mb 0.00 in0.0 mm 0.00 in0.0 mm 0.06 in1.5 mm
10:29 AM 37.5°F3.1°C 40.6°F4.8°C 88% 4.0 mph NW6.4 kmh NW 4.1 mph6.6 kmh 30.02 in1016.6 mb 0.00 in0.0 mm 0.00 in0.0 mm 0.06 in1.5 mm
10:32 AM 37.5°F3.1°C 40.7°F4.8°C 88% 4.0 mph NNW6.4 kmh NNW 4.0 mph6.4 kmh 30.01 in1016.3 mb 0.00 in0.0 mm 0.00 in0.0 mm 0.06 in1.5 mm
10:35 AM 37.5°F3.1°C 40.5°F4.7°C 88% 0.8 mph WNW1.3 kmh WNW 0.8 mph1.3 kmh 30.02 in1016.6 mb 0.00 in0.0 mm 0.00 in0.0 mm 0.06 in1.5 mm
10:38 AM 37.4°F3.0°C 40.5°F4.7°C 88% 6.1 mph NNW9.8 kmh NNW 6.1 mph9.8 kmh 30.02 in1016.6 mb 0.00 in0.0 mm 0.00 in0.0 mm 0.06 in1.5 mm
10:41 AM 37.4°F3.0°C 40.3°F4.6°C 88% 8.4 mph NW13.5 kmh NW 8.5 mph13.7 kmh 30.02 in1016.6 mb 0.00 in0.0 mm 0.00 in0.0 mm 0.06 in1.5 mm
10:44 AM 37.4°F3.0°C 40.3°F4.6°C 88% 7.3 mph NW11.7 kmh NW 7.3 mph11.7 kmh 30.02 in1016.6 mb 0.00 in0.0 mm 0.00 in0.0 mm 0.06 in1.5 mm
10:47 AM 37.3°F2.9°C 40.3°F4.6°C 88% 6.8 mph NNW10.9 kmh NNW 6.8 mph10.9 kmh 30.02 in1016.6 mb 0.00 in0.0 mm 0.00 in0.0 mm 0.06 in1.5 mm
10:50 AM 37.3°F2.9°C 40.5°F4.7°C 88% 4.0 mph NW6.4 kmh NW 4.1 mph6.6 kmh 30.02 in1016.6 mb 0.00 in0.0 mm 0.00 in0.0 mm 0.06 in1.5 mm
10:53 AM 37.3°F2.9°C 40.4°F4.7°C 88% 6.5 mph NW10.5 kmh NW 6.5 mph10.5 kmh 30.02 in1016.6 mb 0.00 in0.0 mm 0.00 in0.0 mm 0.06 in1.5 mm
10:56 AM 37.3°F2.9°C 40.2°F4.6°C 87% 5.7 mph NW9.2 kmh NW 5.7 mph9.2 kmh 30.02 in1016.6 mb 0.00 in0.0 mm 0.00 in0.0 mm 0.06 in1.5 mm
10:59 AM 37.3°F2.9°C 40.4°F4.7°C 88% 3.2 mph NW5.1 kmh NW 3.3 mph5.3 kmh 30.01 in1016.3 mb 0.00 in0.0 mm 0.00 in0.0 mm 0.06 in1.5 mm
11:02 AM 37.2°F2.9°C 40.1°F4.5°C 87% 3.6 mph W5.8 kmh W 3.7 mph6.0 kmh 30.01 in1016.3 mb 0.00 in0.0 mm 0.00 in0.0 mm 0.06 in1.5 mm
11:05 AM 37.3°F2.9°C 40.2°F4.6°C 88% 2.8 mph NNW4.5 kmh NNW 2.9 mph4.7 kmh 30.01 in1016.3 mb 0.00 in0.0 mm 0.00 in0.0 mm 0.06 in1.5 mm
11:08 AM 37.2°F2.9°C 40.0°F4.4°C 87% 2.0 mph NW3.2 kmh NW 2.0 mph3.2 kmh 30.01 in1016.3 mb 0.00 in0.0 mm 0.00 in0.0 mm 0.06 in1.5 mm
11:11 AM 37.3°F2.9°C 40.0°F4.4°C 87% 7.7 mph NW12.4 kmh NW 7.7 mph12.4 kmh 30.01 in1016.3 mb 0.00 in0.0 mm 0.00 in0.0 mm 0.06 in1.5 mm
11:14 AM 37.3°F2.9°C 39.9°F4.4°C 87% 2.0 mph NW3.2 kmh NW 2.0 mph3.2 kmh 30.01 in1016.3 mb 0.00 in0.0 mm 0.00 in0.0 mm 0.06 in1.5 mm
11:17 AM 37.3°F2.9°C 40.1°F4.5°C 87% 5.7 mph NW9.2 kmh NW 5.7 mph9.2 kmh 30.01 in1016.3 mb 0.00 in0.0 mm 0.00 in0.0 mm 0.06 in1.5 mm
11:20 AM 37.3°F2.9°C 39.7°F4.3°C 87% 7.7 mph W12.4 kmh W 7.7 mph12.4 kmh 30.01 in1016.3 mb 0.00 in0.0 mm 0.00 in0.0 mm 0.06 in1.5 mm
11:23 AM 37.3°F2.9°C 40.0°F4.4°C 87% 6.1 mph W9.8 kmh W 6.1 mph9.8 kmh 30.01 in1016.3 mb 0.00 in0.0 mm 0.00 in0.0 mm 0.06 in1.5 mm
11:26 AM 37.4°F3.0°C 40.2°F4.6°C 87% 3.2 mph W5.1 kmh W 3.2 mph5.1 kmh 30.01 in1016.3 mb 0.00 in0.0 mm 0.00 in0.0 mm 0.06 in1.5 mm
11:29 AM 37.4°F3.0°C 40.1°F4.5°C 87% 5.6 mph W9.0 kmh W 5.6 mph9.0 kmh 30.01 in1016.3 mb 0.00 in0.0 mm 0.00 in0.0 mm 0.06 in1.5 mm
11:32 AM 37.4°F3.0°C 39.7°F4.3°C 86% 4.0 mph NW6.4 kmh NW 4.0 mph6.4 kmh 30.01 in1016.3 mb 0.00 in0.0 mm 0.00 in0.0 mm 0.06 in1.5 mm
11:35 AM 37.5°F3.1°C 40.1°F4.5°C 87% 5.3 mph W8.5 kmh W 5.3 mph8.5 kmh 30.01 in1016.3 mb 0.00 in0.0 mm 0.00 in0.0 mm 0.06 in1.5 mm
11:38 AM 37.4°F3.0°C 39.5°F4.2°C 86% 6.5 mph NW10.5 kmh NW 6.5 mph10.5 kmh 30.01 in1016.3 mb 0.00 in0.0 mm 0.00 in0.0 mm 0.06 in1.5 mm
11:41 AM 37.5°F3.1°C 39.8°F4.3°C 86% 4.0 mph NW6.4 kmh NW 4.0 mph6.4 kmh 30.01 in1016.3 mb 0.00 in0.0 mm 0.00 in0.0 mm 0.06 in1.5 mm
11:44 AM 37.5°F3.1°C 39.7°F4.3°C 86% 5.2 mph NNW8.4 kmh NNW 5.3 mph8.5 kmh 30.01 in1016.3 mb 0.00 in0.0 mm 0.00 in0.0 mm 0.06 in1.5 mm
11:47 AM 37.6°F3.1°C 39.8°F4.3°C 87% 3.6 mph NW5.8 kmh NW 3.7 mph6.0 kmh 30.01 in1016.3 mb 0.00 in0.0 mm 0.00 in0.0 mm 0.06 in1.5 mm
11:50 AM 37.5°F3.1°C 39.9°F4.4°C 86% 4.0 mph NNW6.4 kmh NNW 4.0 mph6.4 kmh 30.01 in1016.3 mb 0.00 in0.0 mm 0.00 in0.0 mm 0.06 in1.5 mm
11:53 AM 37.7°F3.2°C 39.8°F4.3°C 86% 10.5 mph NW16.9 kmh NW 10.6 mph17.1 kmh 30.01 in1016.3 mb 0.00 in0.0 mm 0.00 in0.0 mm 0.06 in1.5 mm
11:56 AM 37.7°F3.2°C 40.0°F4.4°C 86% 10.1 mph NNW16.3 kmh NNW 10.1 mph16.3 kmh 30.00 in1015.9 mb 0.00 in0.0 mm 0.00 in0.0 mm 0.06 in1.5 mm
11:59 AM 37.6°F3.1°C 39.5°F4.2°C 85% 8.9 mph W14.3 kmh W 8.9 mph14.3 kmh 30.00 in1015.9 mb 0.00 in0.0 mm 0.00 in0.0 mm 0.06 in1.5 mm
12:02 PM 37.5°F3.1°C 39.4°F4.1°C 85% 5.5 mph NNW8.9 kmh NNW 5.6 mph9.0 kmh 30.00 in1015.9 mb 0.00 in0.0 mm 0.00 in0.0 mm 0.06 in1.5 mm
12:05 PM 37.7°F3.2°C 39.5°F4.2°C 85% 6.1 mph NW9.8 kmh NW 6.1 mph9.8 kmh 30.00 in1015.9 mb 0.00 in0.0 mm 0.00 in0.0 mm 0.06 in1.5 mm
12:08 PM 37.7°F3.2°C 39.6°F4.2°C 85% 2.0 mph NNW3.2 kmh NNW 2.0 mph3.2 kmh 30.01 in1016.3 mb 0.00 in0.0 mm 0.00 in0.0 mm 0.06 in1.5 mm
12:11 PM 37.7°F3.2°C 39.7°F4.3°C 85% 5.7 mph NW9.2 kmh NW 5.7 mph9.2 kmh 30.00 in1015.9 mb 0.00 in0.0 mm 0.00 in0.0 mm 0.06 in1.5 mm
12:14 PM 37.6°F3.1°C 39.2°F4.0°C 84% 3.6 mph NW5.8 kmh NW 3.7 mph6.0 kmh 30.00 in1015.9 mb 0.00 in0.0 mm 0.00 in0.0 mm 0.06 in1.5 mm
12:17 PM 37.6°F3.1°C 38.9°F3.8°C 84% 8.9 mph NNW14.3 kmh NNW 8.9 mph14.3 kmh 30.00 in1015.9 mb 0.00 in0.0 mm 0.00 in0.0 mm 0.06 in1.5 mm
12:20 PM 37.6°F3.1°C 39.1°F3.9°C 83% 7.3 mph NW11.7 kmh NW 7.4 mph11.9 kmh 30.00 in1015.9 mb 0.00 in0.0 mm 0.00 in0.0 mm 0.06 in1.5 mm
12:23 PM 37.6°F3.1°C 38.8°F3.8°C 84% 8.1 mph NW13.0 kmh NW 8.2 mph13.2 kmh 30.00 in1015.9 mb 0.00 in0.0 mm 0.00 in0.0 mm 0.06 in1.5 mm
12:26 PM 37.7°F3.2°C 39.3°F4.1°C 84% 5.7 mph W9.2 kmh W 5.7 mph9.2 kmh 30.00 in1015.9 mb 0.00 in0.0 mm 0.00 in0.0 mm 0.06 in1.5 mm
12:29 PM 37.6°F3.1°C 39.4°F4.1°C 84% 6.1 mph WNW9.8 kmh WNW 6.1 mph9.8 kmh 30.01 in1016.3 mb 0.00 in0.0 mm 0.00 in0.0 mm 0.06 in1.5 mm
12:32 PM 37.6°F3.1°C 39.2°F4.0°C 84% 1.6 mph NW2.6 kmh NW 1.6 mph2.6 kmh 30.00 in1015.9 mb 0.00 in0.0 mm 0.00 in0.0 mm 0.06 in1.5 mm
12:35 PM 37.7°F3.2°C 39.4°F4.1°C 84% 11.7 mph NW18.8 kmh NW 11.7 mph18.8 kmh 30.00 in1015.9 mb 0.00 in0.0 mm 0.00 in0.0 mm 0.06 in1.5 mm
12:38 PM 37.9°F3.3°C 39.3°F4.1°C 84% 6.5 mph NNW10.5 kmh NNW 6.5 mph10.5 kmh 30.00 in1015.9 mb 0.00 in0.0 mm 0.00 in0.0 mm 0.06 in1.5 mm
12:41 PM 37.6°F3.1°C 39.4°F4.1°C 84% 8.9 mph NNW14.3 kmh NNW 9.0 mph14.5 kmh 30.00 in1015.9 mb 0.00 in0.0 mm 0.00 in0.0 mm 0.06 in1.5 mm
12:44 PM 37.9°F3.3°C 39.4°F4.1°C 84% 5.2 mph WNW8.4 kmh WNW 5.2 mph8.4 kmh 30.00 in1015.9 mb 0.00 in0.0 mm 0.00 in0.0 mm 0.06 in1.5 mm
12:47 PM 37.7°F3.2°C 39.1°F3.9°C 84% 10.0 mph SW16.1 kmh SW 10.0 mph16.1 kmh 30.00 in1015.9 mb 0.00 in0.0 mm 0.00 in0.0 mm 0.06 in1.5 mm
12:50 PM 37.5°F3.1°C 39.1°F3.9°C 84% 6.3 mph WNW10.1 kmh WNW 6.4 mph10.3 kmh 29.99 in1015.6 mb 0.00 in0.0 mm 0.00 in0.0 mm 0.06 in1.5 mm
12:53 PM 37.4°F3.0°C 39.0°F3.9°C 84% 3.2 mph NW5.1 kmh NW 3.3 mph5.3 kmh 29.99 in1015.6 mb 0.00 in0.0 mm 0.00 in0.0 mm 0.06 in1.5 mm
12:56 PM 37.3°F2.9°C 38.9°F3.8°C 84% 6.4 mph NNW10.3 kmh NNW 6.5 mph10.5 kmh 29.99 in1015.6 mb 0.00 in0.0 mm 0.00 in0.0 mm 0.06 in1.5 mm
12:59 PM 37.6°F3.1°C 39.0°F3.9°C 84% 2.8 mph NNW4.5 kmh NNW 2.9 mph4.7 kmh 30.00 in1015.9 mb 0.00 in0.0 mm 0.00 in0.0 mm 0.06 in1.5 mm
01:05 PM 37.4°F3.0°C 38.8°F3.8°C 85% 3.2 mph NW5.1 kmh NW 3.3 mph5.3 kmh 30.00 in1015.9 mb 0.00 in0.0 mm 0.00 in0.0 mm 0.06 in1.5 mm
01:08 PM 37.5°F3.1°C 39.3°F4.1°C 85% 4.0 mph W6.4 kmh W 4.1 mph6.6 kmh 30.00 in1015.9 mb 0.00 in0.0 mm 0.00 in0.0 mm 0.06 in1.5 mm
01:11 PM 37.3°F2.9°C 39.4°F4.1°C 85% 8.5 mph NW13.7 kmh NW 8.6 mph13.8 kmh 30.00 in1015.9 mb 0.00 in0.0 mm 0.00 in0.0 mm 0.06 in1.5 mm
01:14 PM 37.1°F2.8°C 39.4°F4.1°C 85% 6.5 mph WNW10.5 kmh WNW 6.5 mph10.5 kmh 30.00 in1015.9 mb 0.00 in0.0 mm 0.00 in0.0 mm 0.06 in1.5 mm
01:17 PM 37.2°F2.9°C 39.4°F4.1°C 86% 4.4 mph NNW7.1 kmh NNW 4.5 mph7.2 kmh 30.00 in1015.9 mb 0.00 in0.0 mm 0.00 in0.0 mm 0.06 in1.5 mm
01:20 PM 37.0°F2.8°C 39.4°F4.1°C 86% 5.9 mph SW9.5 kmh SW 5.9 mph9.5 kmh 30.00 in1015.9 mb 0.00 in0.0 mm 0.00 in0.0 mm 0.06 in1.5 mm
01:23 PM 37.0°F2.8°C 39.2°F4.0°C 86% 4.8 mph WSW7.7 kmh WSW 4.8 mph7.7 kmh 30.00 in1015.9 mb 0.00 in0.0 mm 0.00 in0.0 mm 0.06 in1.5 mm
01:26 PM 37.1°F2.8°C 39.3°F4.1°C 86% 4.4 mph NW7.1 kmh NW 4.5 mph7.2 kmh 29.99 in1015.6 mb 0.00 in0.0 mm 0.00 in0.0 mm 0.06 in1.5 mm
01:29 PM 37.1°F2.8°C 39.5°F4.2°C 86% 5.7 mph NW9.2 kmh NW 5.7 mph9.2 kmh 29.99 in1015.6 mb 0.00 in0.0 mm 0.00 in0.0 mm 0.06 in1.5 mm
01:32 PM 37.0°F2.8°C 39.2°F4.0°C 86% 5.6 mph NNW9.0 kmh NNW 5.6 mph9.0 kmh 29.99 in1015.6 mb 0.00 in0.0 mm 0.00 in0.0 mm 0.06 in1.5 mm
01:35 PM 37.2°F2.9°C 39.2°F4.0°C 86% 6.4 mph W10.3 kmh W 6.4 mph10.3 kmh 29.99 in1015.6 mb 0.00 in0.0 mm 0.00 in0.0 mm 0.06 in1.5 mm
01:38 PM 37.0°F2.8°C 39.7°F4.3°C 87% 4.8 mph NNW7.7 kmh NNW 4.9 mph7.9 kmh 29.99 in1015.6 mb 0.00 in0.0 mm 0.00 in0.0 mm 0.06 in1.5 mm
01:41 PM 36.8°F2.7°C 39.3°F4.1°C 86% 2.4 mph NW3.9 kmh NW 2.4 mph3.9 kmh 29.99 in1015.6 mb 0.00 in0.0 mm 0.00 in0.0 mm 0.06 in1.5 mm
01:44 PM 37.0°F2.8°C 39.1°F3.9°C 86% 1.6 mph W2.6 kmh W 1.6 mph2.6 kmh 29.99 in1015.6 mb 0.00 in0.0 mm 0.00 in0.0 mm 0.06 in1.5 mm
01:47 PM 37.1°F2.8°C 39.3°F4.1°C 86% 2.0 mph NNW3.2 kmh NNW 2.0 mph3.2 kmh 29.99 in1015.6 mb 0.00 in0.0 mm 0.00 in0.0 mm 0.06 in1.5 mm
01:50 PM 36.7°F2.6°C 39.4°F4.1°C 86% 2.8 mph NNW4.5 kmh NNW 2.8 mph4.5 kmh 29.99 in1015.6 mb 0.00 in0.0 mm 0.00 in0.0 mm 0.06 in1.5 mm
01:53 PM 36.6°F2.6°C 39.1°F3.9°C 86% 4.9 mph WSW7.9 kmh WSW 4.9 mph7.9 kmh 29.99 in1015.6 mb 0.00 in0.0 mm 0.00 in0.0 mm 0.06 in1.5 mm
01:56 PM 36.5°F2.5°C 39.2°F4.0°C 86% 2.0 mph W3.2 kmh W 2.0 mph3.2 kmh 29.98 in1015.2 mb 0.00 in0.0 mm 0.00 in0.0 mm 0.06 in1.5 mm
01:59 PM 36.2°F2.3°C 39.3°F4.1°C 86% 1.6 mph W2.6 kmh W 1.6 mph2.6 kmh 29.98 in1015.2 mb 0.00 in0.0 mm 0.00 in0.0 mm 0.06 in1.5 mm
02:05 PM 36.1°F2.3°C 39.2°F4.0°C 86% 0.8 mph WNW1.3 kmh WNW 0.8 mph1.3 kmh 29.98 in1015.2 mb 0.00 in0.0 mm 0.00 in0.0 mm 0.06 in1.5 mm
02:08 PM 35.9°F2.2°C 38.9°F3.8°C 85% 2.8 mph W4.5 kmh W 2.9 mph4.7 kmh 29.98 in1015.2 mb 0.00 in0.0 mm 0.00 in0.0 mm 0.06 in1.5 mm
02:11 PM 36.1°F2.3°C 39.2°F4.0°C 86% 1.6 mph NW2.6 kmh NW 1.6 mph2.6 kmh 29.98 in1015.2 mb 0.00 in0.0 mm 0.00 in0.0 mm 0.06 in1.5 mm
02:14 PM 35.8°F2.1°C 39.1°F3.9°C 86% 0.8 mph NW1.3 kmh NW 0.8 mph1.3 kmh 29.98 in1015.2 mb 0.00 in0.0 mm 0.00 in0.0 mm 0.06 in1.5 mm
02:17 PM 35.8°F2.1°C 39.2°F4.0°C 86% 1.6 mph W2.6 kmh W 1.6 mph2.6 kmh 29.98 in1015.2 mb 0.00 in0.0 mm 0.00 in0.0 mm 0.06 in1.5 mm
02:20 PM 35.8°F2.1°C 39.2°F4.0°C 86% 1.2 mph WNW1.9 kmh WNW 1.2 mph1.9 kmh 29.98 in1015.2 mb 0.00 in0.0 mm 0.00 in0.0 mm 0.06 in1.5 mm
02:23 PM 35.7°F2.1°C 39.1°F3.9°C 86% 3.6 mph NW5.8 kmh NW 3.7 mph6.0 kmh 29.98 in1015.2 mb 0.00 in0.0 mm 0.00 in0.0 mm 0.06 in1.5 mm
02:26 PM 35.7°F2.1°C 39.4°F4.1°C 87% 1.2 mph WNW1.9 kmh WNW 1.2 mph1.9 kmh 29.98 in1015.2 mb 0.00 in0.0 mm 0.00 in0.0 mm 0.06 in1.5 mm
02:29 PM 35.8°F2.1°C 39.0°F3.9°C 86% 0.8 mph NNW1.3 kmh NNW 0.8 mph1.3 kmh 29.98 in1015.2 mb 0.00 in0.0 mm 0.00 in0.0 mm 0.06 in1.5 mm
02:32 PM 35.8°F2.1°C 39.1°F3.9°C 86% 1.6 mph W2.6 kmh W 1.6 mph2.6 kmh 29.98 in1015.2 mb 0.00 in0.0 mm 0.00 in0.0 mm 0.06 in1.5 mm
02:35 PM 35.8°F2.1°C 39.3°F4.1°C 87% 2.4 mph NNW3.9 kmh NNW 2.4 mph3.9 kmh 29.98 in1015.2 mb 0.00 in0.0 mm 0.00 in0.0 mm 0.06 in1.5 mm
02:38 PM 35.9°F2.2°C 39.3°F4.1°C 86% 0.4 mph W0.6 kmh W 0.4 mph0.6 kmh 29.98 in1015.2 mb 0.00 in0.0 mm 0.00 in0.0 mm 0.06 in1.5 mm
02:41 PM 35.9°F2.2°C 39.2°F4.0°C 86% 0.8 mph NW1.3 kmh NW 0.8 mph1.3 kmh 29.98 in1015.2 mb 0.00 in0.0 mm 0.00 in0.0 mm 0.06 in1.5 mm
02:44 PM 35.8°F2.1°C 39.1°F3.9°C 86% 2.8 mph W4.5 kmh W 2.8 mph4.5 kmh 29.98 in1015.2 mb 0.00 in0.0 mm 0.00 in0.0 mm 0.06 in1.5 mm
02:47 PM 35.7°F2.1°C 39.0°F3.9°C 87% 4.4 mph W7.1 kmh W 4.5 mph7.2 kmh 29.98 in1015.2 mb 0.00 in0.0 mm 0.00 in0.0 mm 0.06 in1.5 mm
02:50 PM 35.7°F2.1°C 38.9°F3.8°C 86% 2.8 mph W4.5 kmh W 2.9 mph4.7 kmh 29.98 in1015.2 mb 0.00 in0.0 mm 0.00 in0.0 mm 0.08 in2.0 mm
02:53 PM 35.7°F2.1°C 39.1°F3.9°C 87% 3.2 mph NNW5.1 kmh NNW 3.3 mph5.3 kmh 29.98 in1015.2 mb 0.00 in0.0 mm 0.00 in0.0 mm 0.08 in2.0 mm
02:59 PM 35.7°F2.1°C 39.3°F4.1°C 87% 2.0 mph W3.2 kmh W 2.0 mph3.2 kmh 29.97 in1014.9 mb 0.00 in0.0 mm 0.00 in0.0 mm 0.08 in2.0 mm
03:02 PM 35.6°F2.0°C 39.1°F3.9°C 86% 1.2 mph W1.9 kmh W 1.2 mph1.9 kmh 29.97 in1014.9 mb 0.00 in0.0 mm 0.00 in0.0 mm 0.08 in2.0 mm
03:05 PM 35.6°F2.0°C 39.1°F3.9°C 87% 2.4 mph NW3.9 kmh NW 2.4 mph3.9 kmh 29.97 in1014.9 mb 0.00 in0.0 mm 0.00 in0.0 mm 0.08 in2.0 mm
03:08 PM 35.6°F2.0°C 38.9°F3.8°C 87% 2.0 mph W3.2 kmh W 2.0 mph3.2 kmh 29.97 in1014.9 mb 0.00 in0.0 mm 0.00 in0.0 mm 0.08 in2.0 mm
03:11 PM 35.4°F1.9°C 39.1°F3.9°C 87% 2.8 mph W4.5 kmh W 2.8 mph4.5 kmh 29.97 in1014.9 mb 0.00 in0.0 mm 0.00 in0.0 mm 0.08 in2.0 mm
03:14 PM 35.4°F1.9°C 39.2°F4.0°C 87% 1.6 mph W2.6 kmh W 1.6 mph2.6 kmh 29.97 in1014.9 mb 0.00 in0.0 mm 0.00 in0.0 mm 0.08 in2.0 mm
03:17 PM 35.4°F1.9°C 38.9°F3.8°C 87% 2.4 mph WNW3.9 kmh WNW 2.5 mph4.0 kmh 29.97 in1014.9 mb 0.00 in0.0 mm 0.00 in0.0 mm 0.08 in2.0 mm
03:20 PM 35.4°F1.9°C 39.1°F3.9°C 87% 3.2 mph W5.1 kmh W 3.2 mph5.1 kmh 29.97 in1014.9 mb 0.00 in0.0 mm 0.00 in0.0 mm 0.08 in2.0 mm
03:23 PM 35.4°F1.9°C 39.2°F4.0°C 87% 0.4 mph W0.6 kmh W 0.4 mph0.6 kmh 29.97 in1014.9 mb 0.00 in0.0 mm 0.00 in0.0 mm 0.08 in2.0 mm
03:26 PM 35.4°F1.9°C 38.8°F3.8°C 87% 1.6 mph WNW2.6 kmh WNW 1.6 mph2.6 kmh 29.96 in1014.6 mb 0.00 in0.0 mm 0.00 in0.0 mm 0.08 in2.0 mm
03:29 PM 35.3°F1.8°C 39.1°F3.9°C 87% Calm Calm -- 29.96 in1014.6 mb 0.00 in0.0 mm 0.00 in0.0 mm 0.08 in2.0 mm
03:32 PM 35.3°F1.8°C 38.9°F3.8°C 87% 4.4 mph NNW7.1 kmh NNW 4.5 mph7.2 kmh 29.96 in1014.6 mb 0.00 in0.0 mm 0.00 in0.0 mm 0.08 in2.0 mm
03:35 PM 35.2°F1.8°C 38.8°F3.8°C 87% 1.2 mph W1.9 kmh W 1.2 mph1.9 kmh 29.96 in1014.6 mb 0.00 in0.0 mm 0.00 in0.0 mm 0.08 in2.0 mm
03:38 PM 35.0°F1.7°C 39.0°F3.9°C 87% 3.6 mph W5.8 kmh W 3.7 mph6.0 kmh 29.96 in1014.6 mb 0.00 in0.0 mm 0.00 in0.0 mm 0.08 in2.0 mm
03:41 PM 35.0°F1.7°C 38.9°F3.8°C 88% 2.8 mph W4.5 kmh W 2.9 mph4.7 kmh 29.96 in1014.6 mb 0.00 in0.0 mm 0.00 in0.0 mm 0.08 in2.0 mm
03:44 PM 35.0°F1.7°C 38.9°F3.8°C 88% 3.2 mph NW5.1 kmh NW 3.3 mph5.3 kmh 29.96 in1014.6 mb 0.00 in0.0 mm 0.00 in0.0 mm 0.10 in2.5 mm
03:47 PM 35.2°F1.8°C 38.3°F3.5°C 87% Calm Calm -- 29.96 in1014.6 mb 0.00 in0.0 mm 0.00 in0.0 mm 0.10 in2.5 mm
03:50 PM 34.9°F1.6°C 38.6°F3.7°C 87% 3.2 mph NNW5.1 kmh NNW 3.2 mph5.1 kmh 29.96 in1014.6 mb 0.00 in0.0 mm 0.00 in0.0 mm 0.10 in2.5 mm
03:53 PM 34.8°F1.6°C 38.6°F3.7°C 88% 4.4 mph NNW7.1 kmh NNW 4.5 mph7.2 kmh 29.96 in1014.6 mb 0.00 in0.0 mm 0.00 in0.0 mm 0.10 in2.5 mm
03:56 PM 34.8°F1.6°C 38.7°F3.7°C 87% 3.2 mph WNW5.1 kmh WNW 3.2 mph5.1 kmh 29.96 in1014.6 mb 0.00 in0.0 mm 0.00 in0.0 mm 0.10 in2.5 mm
03:59 PM 34.8°F1.6°C 38.7°F3.7°C 88% 1.2 mph NNW1.9 kmh NNW 1.2 mph1.9 kmh 29.96 in1014.6 mb 0.00 in0.0 mm 0.00 in0.0 mm 0.10 in2.5 mm
04:05 PM 34.6°F1.4°C 38.8°F3.8°C 88% 2.0 mph NNW3.2 kmh NNW 2.0 mph3.2 kmh 29.96 in1014.6 mb 0.00 in0.0 mm 0.00 in0.0 mm 0.10 in2.5 mm
04:08 PM 34.5°F1.4°C 38.5°F3.6°C 88% 2.0 mph NNW3.2 kmh NNW 2.0 mph3.2 kmh 29.95 in1014.2 mb 0.00 in0.0 mm 0.00 in0.0 mm 0.10 in2.5 mm
04:11 PM 34.5°F1.4°C 38.4°F3.6°C 87% 1.6 mph WNW2.6 kmh WNW 1.6 mph2.6 kmh 29.96 in1014.6 mb 0.00 in0.0 mm 0.00 in0.0 mm 0.10 in2.5 mm
04:14 PM 34.4°F1.3°C 38.2°F3.4°C 87% 1.6 mph W2.6 kmh W 1.6 mph2.6 kmh 29.95 in1014.2 mb 0.00 in0.0 mm 0.00 in0.0 mm 0.10 in2.5 mm
04:17 PM 34.4°F1.3°C 38.2°F3.4°C 87% Calm Calm -- 29.95 in1014.2 mb 0.00 in0.0 mm 0.00 in0.0 mm 0.10 in2.5 mm
04:20 PM 34.3°F1.3°C 38.4°F3.6°C 87% 2.0 mph W3.2 kmh W 2.0 mph3.2 kmh 29.95 in1014.2 mb 0.00 in0.0 mm 0.00 in0.0 mm 0.10 in2.5 mm
04:23 PM 34.3°F1.3°C 38.3°F3.5°C 87% Calm Calm -- 29.95 in1014.2 mb 0.00 in0.0 mm 0.00 in0.0 mm 0.10 in2.5 mm
04:26 PM 34.3°F1.3°C 38.4°F3.6°C 87% 0.4 mph W0.6 kmh W 0.4 mph0.6 kmh 29.94 in1013.9 mb 0.00 in0.0 mm 0.00 in0.0 mm 0.10 in2.5 mm
04:29 PM 34.1°F1.2°C 38.2°F3.4°C 87% 0.4 mph W0.6 kmh W 0.4 mph0.6 kmh 29.94 in1013.9 mb 0.00 in0.0 mm 0.00 in0.0 mm 0.10 in2.5 mm
04:32 PM 34.1°F1.2°C 38.3°F3.5°C 87% 3.6 mph NNW5.8 kmh NNW 3.7 mph6.0 kmh 29.94 in1013.9 mb 0.00 in0.0 mm 0.00 in0.0 mm 0.10 in2.5 mm
04:35 PM 34.1°F1.2°C 38.4°F3.6°C 88% Calm Calm -- 29.94 in1013.9 mb 0.00 in0.0 mm 0.00 in0.0 mm 0.10 in2.5 mm
04:38 PM 34.0°F1.1°C 38.4°F3.6°C 88% Calm Calm -- 29.94 in1013.9 mb 0.00 in0.0 mm 0.00 in0.0 mm 0.10 in2.5 mm
04:41 PM 33.9°F1.1°C 38.0°F3.3°C 87% 1.6 mph W2.6 kmh W 1.6 mph2.6 kmh 29.94 in1013.9 mb 0.00 in0.0 mm 0.00 in0.0 mm 0.10 in2.5 mm
04:44 PM 33.9°F1.1°C 38.0°F3.3°C 87% Calm Calm -- 29.94 in1013.9 mb 0.00 in0.0 mm 0.00 in0.0 mm 0.10 in2.5 mm
04:47 PM 33.9°F1.1°C 37.9°F3.3°C 87% Calm Calm -- 29.94 in1013.9 mb 0.00 in0.0 mm 0.00 in0.0 mm 0.10 in2.5 mm
04:50 PM 33.9°F1.1°C 37.9°F3.3°C 87% Calm Calm -- 29.94 in1013.9 mb 0.00 in0.0 mm 0.00 in0.0 mm 0.10 in2.5 mm
04:53 PM 33.8°F1.0°C 38.0°F3.3°C 87% 0.4 mph W0.6 kmh W 0.4 mph0.6 kmh 29.94 in1013.9 mb 0.00 in0.0 mm 0.00 in0.0 mm 0.10 in2.5 mm
04:56 PM 33.7°F0.9°C 38.0°F3.3°C 87% Calm Calm -- 29.93 in1013.5 mb 0.00 in0.0 mm 0.00 in0.0 mm 0.10 in2.5 mm
04:59 PM 33.7°F0.9°C 37.9°F3.3°C 87% 2.0 mph NNW3.2 kmh NNW 2.0 mph3.2 kmh 29.93 in1013.5 mb 0.00 in0.0 mm 0.00 in0.0 mm 0.10 in2.5 mm
05:02 PM 33.7°F0.9°C 37.9°F3.3°C 87% Calm Calm -- 29.93 in1013.5 mb 0.00 in0.0 mm 0.00 in0.0 mm 0.10 in2.5 mm
05:05 PM 33.7°F0.9°C 37.9°F3.3°C 87% Calm Calm -- 29.93 in1013.5 mb 0.00 in0.0 mm 0.00 in0.0 mm 0.10 in2.5 mm
05:08 PM 33.7°F0.9°C 37.8°F3.2°C 87% 0.8 mph W1.3 kmh W 0.8 mph1.3 kmh 29.93 in1013.5 mb 0.00 in0.0 mm 0.00 in0.0 mm 0.12 in3.0 mm
05:11 PM 33.7°F0.9°C 38.0°F3.3°C 88% 2.8 mph W4.5 kmh W 2.8 mph4.5 kmh 29.93 in1013.5 mb 0.00 in0.0 mm 0.00 in0.0 mm 0.12 in3.0 mm
05:14 PM 33.7°F0.9°C 37.9°F3.3°C 87% 0.4 mph WNW0.6 kmh WNW 0.4 mph0.6 kmh 29.93 in1013.5 mb 0.00 in0.0 mm 0.00 in0.0 mm 0.12 in3.0 mm
05:17 PM 33.7°F0.9°C 37.8°F3.2°C 87% 2.0 mph W3.2 kmh W 2.0 mph3.2 kmh 29.93 in1013.5 mb 0.00 in0.0 mm 0.00 in0.0 mm 0.12 in3.0 mm
05:20 PM 33.7°F0.9°C 37.7°F3.2°C 87% Calm Calm -- 29.93 in1013.5 mb 0.00 in0.0 mm 0.00 in0.0 mm 0.12 in3.0 mm
05:23 PM 33.7°F0.9°C 37.8°F3.2°C 88% 2.0 mph NNW3.2 kmh NNW 2.0 mph3.2 kmh 29.93 in1013.5 mb 0.00 in0.0 mm 0.00 in0.0 mm 0.12 in3.0 mm
05:26 PM 33.6°F0.9°C 37.7°F3.2°C 87% Calm Calm -- 29.93 in1013.5 mb 0.00 in0.0 mm 0.00 in0.0 mm 0.12 in3.0 mm
05:29 PM 33.4°F0.8°C 37.6°F3.1°C 87% Calm Calm -- 29.93 in1013.5 mb 0.00 in0.0 mm 0.00 in0.0 mm 0.12 in3.0 mm
05:32 PM 33.4°F0.8°C 37.2°F2.9°C 87% 2.0 mph W3.2 kmh W 2.0 mph3.2 kmh 29.93 in1013.5 mb 0.00 in0.0 mm 0.00 in0.0 mm 0.12 in3.0 mm
05:35 PM 33.5°F0.8°C 37.6°F3.1°C 88% Calm Calm -- 29.93 in1013.5 mb 0.00 in0.0 mm 0.00 in0.0 mm 0.12 in3.0 mm
05:38 PM 33.4°F0.8°C 37.5°F3.1°C 87% Calm Calm -- 29.93 in1013.5 mb 0.00 in0.0 mm 0.00 in0.0 mm 0.12 in3.0 mm
05:41 PM 33.4°F0.8°C 37.6°F3.1°C 88% 2.0 mph NW3.2 kmh NW 2.0 mph3.2 kmh 29.93 in1013.5 mb 0.00 in0.0 mm 0.00 in0.0 mm 0.12 in3.0 mm
05:44 PM 33.4°F0.8°C 37.5°F3.1°C 88% Calm Calm -- 29.92 in1013.2 mb 0.00 in0.0 mm 0.00 in0.0 mm 0.12 in3.0 mm
05:47 PM 33.2°F0.7°C 37.4°F3.0°C 88% Calm Calm -- 29.91 in1012.9 mb 0.00 in0.0 mm 0.00 in0.0 mm 0.12 in3.0 mm
05:50 PM 33.2°F0.7°C 37.4°F3.0°C 88% Calm Calm -- 29.92 in1013.2 mb 0.00 in0.0 mm 0.00 in0.0 mm 0.12 in3.0 mm
05:53 PM 33.2°F0.7°C 37.5°F3.1°C 88% 1.6 mph WNW2.6 kmh WNW 1.6 mph2.6 kmh 29.92 in1013.2 mb 0.00 in0.0 mm 0.00 in0.0 mm 0.12 in3.0 mm
05:56 PM 33.1°F0.6°C 37.4°F3.0°C 88% Calm Calm -- 29.92 in1013.2 mb 0.00 in0.0 mm 0.00 in0.0 mm 0.12 in3.0 mm
05:59 PM 33.2°F0.7°C 37.3°F2.9°C 88% Calm Calm -- 29.91 in1012.9 mb 0.00 in0.0 mm 0.00 in0.0 mm 0.12 in3.0 mm
06:02 PM 33.4°F0.8°C 37.5°F3.1°C 88% Calm Calm -- 29.91 in1012.9 mb 0.00 in0.0 mm 0.00 in0.0 mm 0.12 in3.0 mm
06:05 PM 33.1°F0.6°C 37.5°F3.1°C 88% Calm Calm -- 29.91 in1012.9 mb 0.00 in0.0 mm 0.00 in0.0 mm 0.12 in3.0 mm
06:08 PM 33.1°F0.6°C 36.9°F2.7°C 87% Calm Calm -- 29.91 in1012.9 mb 0.00 in0.0 mm 0.00 in0.0 mm 0.12 in3.0 mm
06:11 PM 33.1°F0.6°C 37.4°F3.0°C 88% Calm Calm -- 29.91 in1012.9 mb 0.00 in0.0 mm 0.00 in0.0 mm 0.12 in3.0 mm
06:14 PM 33.0°F0.6°C 37.4°F3.0°C 88% Calm Calm -- 29.91 in1012.9 mb 0.00 in0.0 mm 0.00 in0.0 mm 0.12 in3.0 mm
06:17 PM 33.0°F0.6°C 37.3°F2.9°C 88% Calm Calm -- 29.91 in1012.9 mb 0.00 in0.0 mm 0.00 in0.0 mm 0.12 in3.0 mm
06:20 PM 32.9°F0.5°C 37.2°F2.9°C 88% Calm Calm -- 29.91 in1012.9 mb 0.00 in0.0 mm 0.00 in0.0 mm 0.12 in3.0 mm
06:23 PM 33.0°F0.6°C 37.2°F2.9°C 88% Calm Calm -- 29.91 in1012.9 mb 0.00 in0.0 mm 0.00 in0.0 mm 0.12 in3.0 mm
06:26 PM 32.9°F0.5°C 37.4°F3.0°C 88% Calm Calm -- 29.91 in1012.9 mb 0.00 in0.0 mm 0.00 in0.0 mm 0.12 in3.0 mm
06:29 PM 33.0°F0.6°C 37.0°F2.8°C 88% Calm Calm -- 29.91 in1012.9 mb 0.00 in0.0 mm 0.00 in0.0 mm 0.12 in3.0 mm
06:32 PM 32.9°F0.5°C 37.3°F2.9°C 88% Calm Calm -- 29.91 in1012.9 mb 0.00 in0.0 mm 0.00 in0.0 mm 0.12 in3.0 mm
06:35 PM 32.8°F0.4°C 37.1°F2.8°C 88% Calm Calm -- 29.91 in1012.9 mb 0.00 in0.0 mm 0.00 in0.0 mm 0.12 in3.0 mm
06:38 PM 32.8°F0.4°C 37.1°F2.8°C 88% Calm Calm -- 29.91 in1012.9 mb 0.00 in0.0 mm 0.00 in0.0 mm 0.12 in3.0 mm
06:41 PM 32.8°F0.4°C 36.8°F2.7°C 88% Calm Calm -- 29.91 in1012.9 mb 0.00 in0.0 mm 0.00 in0.0 mm 0.12 in3.0 mm
06:44 PM 32.8°F0.4°C 37.1°F2.8°C 88% Calm Calm -- 29.91 in1012.9 mb 0.00 in0.0 mm 0.00 in0.0 mm 0.12 in3.0 mm
06:47 PM 32.9°F0.5°C 37.2°F2.9°C 88% Calm Calm -- 29.91 in1012.9 mb 0.00 in0.0 mm 0.00 in0.0 mm 0.12 in3.0 mm
06:50 PM 33.0°F0.6°C 37.1°F2.8°C 88% Calm Calm -- 29.91 in1012.9 mb 0.00 in0.0 mm 0.00 in0.0 mm 0.12 in3.0 mm
06:53 PM 32.9°F0.5°C 37.2°F2.9°C 89% Calm Calm -- 29.91 in1012.9 mb 0.00 in0.0 mm 0.00 in0.0 mm 0.12 in3.0 mm
06:56 PM 32.8°F0.4°C 37.2°F2.9°C 88% Calm Calm -- 29.91 in1012.9 mb 0.00 in0.0 mm 0.00 in0.0 mm 0.12 in3.0 mm
06:59 PM 32.9°F0.5°C 37.2°F2.9°C 88% Calm Calm -- 29.90 in1012.5 mb 0.00 in0.0 mm 0.00 in0.0 mm 0.12 in3.0 mm
07:02 PM 32.8°F0.4°C 37.1°F2.8°C 88% Calm Calm -- 29.91 in1012.9 mb 0.00 in0.0 mm 0.00 in0.0 mm 0.12 in3.0 mm
07:05 PM 32.9°F0.5°C 37.1°F2.8°C 88% Calm Calm -- 29.90 in1012.5 mb 0.00 in0.0 mm 0.00 in0.0 mm 0.12 in3.0 mm
07:08 PM 32.9°F0.5°C 37.1°F2.8°C 88% Calm Calm -- 29.91 in1012.9 mb 0.00 in0.0 mm 0.00 in0.0 mm 0.12 in3.0 mm
07:11 PM 32.9°F0.5°C 36.9°F2.7°C 88% Calm Calm -- 29.90 in1012.5 mb 0.00 in0.0 mm 0.00 in0.0 mm 0.12 in3.0 mm
07:14 PM 32.9°F0.5°C 37.2°F2.9°C 88% Calm Calm -- 29.90 in1012.5 mb 0.00 in0.0 mm 0.00 in0.0 mm 0.12 in3.0 mm
07:17 PM 32.9°F0.5°C 37.2°F2.9°C 89% Calm Calm -- 29.90 in1012.5 mb 0.00 in0.0 mm 0.00 in0.0 mm 0.12 in3.0 mm
07:20 PM 32.7°F0.4°C 37.1°F2.8°C 88% Calm Calm -- 29.90 in1012.5 mb 0.00 in0.0 mm 0.00 in0.0 mm 0.12 in3.0 mm
07:23 PM 32.9°F0.5°C 37.1°F2.8°C 89% Calm Calm -- 29.90 in1012.5 mb 0.00 in0.0 mm 0.00 in0.0 mm 0.12 in3.0 mm
07:26 PM 32.8°F0.4°C 37.0°F2.8°C 88% Calm Calm -- 29.90 in1012.5 mb 0.00 in0.0 mm 0.00 in0.0 mm 0.12 in3.0 mm
07:29 PM 32.8°F0.4°C 37.1°F2.8°C 89% Calm Calm -- 29.90 in1012.5 mb 0.00 in0.0 mm 0.00 in0.0 mm 0.12 in3.0 mm
07:32 PM 32.7°F0.4°C 37.1°F2.8°C 89% Calm Calm -- 29.90 in1012.5 mb 0.00 in0.0 mm 0.00 in0.0 mm 0.12 in3.0 mm
07:35 PM 32.7°F0.4°C 36.8°F2.7°C 87% Calm Calm -- 29.90 in1012.5 mb 0.00 in0.0 mm 0.00 in0.0 mm 0.12 in3.0 mm
07:38 PM 32.6°F0.3°C 37.0°F2.8°C 89% Calm Calm -- 29.90 in1012.5 mb 0.00 in0.0 mm 0.00 in0.0 mm 0.12 in3.0 mm
07:41 PM 32.7°F0.4°C 36.9°F2.7°C 89% Calm Calm -- 29.90 in1012.5 mb 0.00 in0.0 mm 0.00 in0.0 mm 0.12 in3.0 mm
07:44 PM 32.6°F0.3°C 36.9°F2.7°C 88% Calm Calm -- 29.90 in1012.5 mb 0.00 in0.0 mm 0.00 in0.0 mm 0.12 in3.0 mm
07:47 PM 32.6°F0.3°C 36.9°F2.7°C 89% Calm Calm -- 29.89 in1012.2 mb 0.00 in0.0 mm 0.00 in0.0 mm 0.12 in3.0 mm
07:50 PM 32.6°F0.3°C 36.7°F2.6°C 89% Calm Calm -- 29.89 in1012.2 mb 0.00 in0.0 mm 0.00 in0.0 mm 0.12 in3.0 mm
07:53 PM 32.7°F0.4°C 36.9°F2.7°C 89% Calm Calm -- 29.89 in1012.2 mb 0.00 in0.0 mm 0.00 in0.0 mm 0.12 in3.0 mm
07:56 PM 32.7°F0.4°C 36.9°F2.7°C 89% Calm Calm -- 29.89 in1012.2 mb 0.00 in0.0 mm 0.00 in0.0 mm 0.12 in3.0 mm
07:59 PM 32.7°F0.4°C 36.9°F2.7°C 89% Calm Calm -- 29.89 in1012.2 mb 0.00 in0.0 mm 0.00 in0.0 mm 0.12 in3.0 mm
08:02 PM 32.6°F0.3°C 37.1°F2.8°C 89% Calm Calm -- 29.89 in1012.2 mb 0.00 in0.0 mm 0.00 in0.0 mm 0.12 in3.0 mm
08:05 PM 32.5°F0.3°C 36.9°F2.7°C 89% Calm Calm -- 29.89 in1012.2 mb 0.00 in0.0 mm 0.00 in0.0 mm 0.12 in3.0 mm
08:08 PM 32.7°F0.4°C 36.9°F2.7°C 89% Calm Calm -- 29.89 in1012.2 mb 0.00 in0.0 mm 0.00 in0.0 mm 0.12 in3.0 mm
08:11 PM 32.6°F0.3°C 36.9°F2.7°C 89% Calm Calm -- 29.89 in1012.2 mb 0.00 in0.0 mm 0.00 in0.0 mm 0.12 in3.0 mm
08:14 PM 32.6°F0.3°C 36.9°F2.7°C 89% Calm Calm -- 29.89 in1012.2 mb 0.00 in0.0 mm 0.00 in0.0 mm 0.12 in3.0 mm
08:17 PM 32.6°F0.3°C 36.9°F2.7°C 89% Calm Calm -- 29.89 in1012.2 mb 0.00 in0.0 mm 0.00 in0.0 mm 0.12 in3.0 mm
08:20 PM 32.6°F0.3°C 36.6°F2.6°C 89% Calm Calm -- 29.89 in1012.2 mb 0.00 in0.0 mm 0.00 in0.0 mm 0.12 in3.0 mm
08:26 PM 32.6°F0.3°C 36.9°F2.7°C 89% Calm Calm -- 29.89 in1012.2 mb 0.00 in0.0 mm 0.00 in0.0 mm 0.12 in3.0 mm
08:29 PM 32.5°F0.3°C 36.7°F2.6°C 88% Calm Calm -- 29.89 in1012.2 mb 0.00 in0.0 mm 0.00 in0.0 mm 0.12 in3.0 mm
08:32 PM 32.5°F0.3°C 36.7°F2.6°C 89% Calm Calm -- 29.89 in1012.2 mb 0.00 in0.0 mm 0.00 in0.0 mm 0.12 in3.0 mm
08:35 PM 32.6°F0.3°C 37.0°F2.8°C 89% Calm Calm -- 29.89 in1012.2 mb 0.00 in0.0 mm 0.00 in0.0 mm 0.12 in3.0 mm
08:38 PM 32.6°F0.3°C 36.7°F2.6°C 89% Calm Calm -- 29.89 in1012.2 mb 0.00 in0.0 mm 0.00 in0.0 mm 0.12 in3.0 mm
08:41 PM 32.5°F0.3°C 36.5°F2.5°C 88% Calm Calm -- 29.89 in1012.2 mb 0.00 in0.0 mm 0.00 in0.0 mm 0.12 in3.0 mm
08:44 PM 32.5°F0.3°C 36.6°F2.6°C 88% Calm Calm -- 29.88 in1011.9 mb 0.00 in0.0 mm 0.00 in0.0 mm 0.12 in3.0 mm
08:47 PM 32.5°F0.3°C 36.9°F2.7°C 89% Calm Calm -- 29.88 in1011.9 mb 0.00 in0.0 mm 0.00 in0.0 mm 0.12 in3.0 mm
08:50 PM 32.5°F0.3°C 37.0°F2.8°C 89% Calm Calm -- 29.89 in1012.2 mb 0.00 in0.0 mm 0.00 in0.0 mm 0.12 in3.0 mm
08:53 PM 32.6°F0.3°C 36.8°F2.7°C 89% Calm Calm -- 29.88 in1011.9 mb 0.00 in0.0 mm 0.00 in0.0 mm 0.12 in3.0 mm
08:56 PM 32.5°F0.3°C 37.0°F2.8°C 89% Calm Calm -- 29.88 in1011.9 mb 0.00 in0.0 mm 0.00 in0.0 mm 0.12 in3.0 mm
08:59 PM 32.6°F0.3°C 37.0°F2.8°C 90% Calm Calm -- 29.88 in1011.9 mb 0.00 in0.0 mm 0.00 in0.0 mm 0.12 in3.0 mm
09:02 PM 32.6°F0.3°C 36.9°F2.7°C 89% Calm Calm -- 29.88 in1011.9 mb 0.00 in0.0 mm 0.00 in0.0 mm 0.12 in3.0 mm
09:05 PM 32.5°F0.3°C 37.0°F2.8°C 89% 0.4 mph SW0.6 kmh SW 0.4 mph0.6 kmh 29.88 in1011.9 mb 0.00 in0.0 mm 0.00 in0.0 mm 0.12 in3.0 mm
09:08 PM 32.5°F0.3°C 36.5°F2.5°C 88% Calm Calm -- 29.87 in1011.5 mb 0.00 in0.0 mm 0.00 in0.0 mm 0.12 in3.0 mm
09:11 PM 32.5°F0.3°C 36.9°F2.7°C 89% Calm Calm -- 29.87 in1011.5 mb 0.00 in0.0 mm 0.00 in0.0 mm 0.12 in3.0 mm
09:14 PM 32.5°F0.3°C 36.8°F2.7°C 89% Calm Calm -- 29.87 in1011.5 mb 0.00 in0.0 mm 0.00 in0.0 mm 0.12 in3.0 mm
09:17 PM 32.6°F0.3°C 37.0°F2.8°C 90% Calm Calm -- 29.88 in1011.9 mb 0.00 in0.0 mm 0.00 in0.0 mm 0.12 in3.0 mm
09:20 PM 32.5°F0.3°C 36.8°F2.7°C 89% Calm Calm -- 29.88 in1011.9 mb 0.00 in0.0 mm 0.00 in0.0 mm 0.12 in3.0 mm
09:23 PM 32.6°F0.3°C 37.0°F2.8°C 89% Calm Calm -- 29.87 in1011.5 mb 0.00 in0.0 mm 0.00 in0.0 mm 0.12 in3.0 mm
09:26 PM 32.6°F0.3°C 36.7°F2.6°C 89% Calm Calm -- 29.87 in1011.5 mb 0.00 in0.0 mm 0.00 in0.0 mm 0.12 in3.0 mm
09:29 PM 32.6°F0.3°C 36.8°F2.7°C 89% Calm Calm -- 29.87 in1011.5 mb 0.00 in0.0 mm 0.00 in0.0 mm 0.12 in3.0 mm
09:32 PM 32.5°F0.3°C 36.8°F2.7°C 89% Calm Calm -- 29.88 in1011.9 mb 0.00 in0.0 mm 0.00 in0.0 mm 0.12 in3.0 mm
09:35 PM 32.5°F0.3°C 36.8°F2.7°C 89% Calm Calm -- 29.88 in1011.9 mb 0.00 in0.0 mm 0.00 in0.0 mm 0.12 in3.0 mm
09:38 PM 32.5°F0.3°C 36.9°F2.7°C 90% Calm Calm -- 29.87 in1011.5 mb 0.00 in0.0 mm 0.00 in0.0 mm 0.12 in3.0 mm
09:41 PM 32.5°F0.3°C 36.9°F2.7°C 90% Calm Calm -- 29.88 in1011.9 mb 0.00 in0.0 mm 0.00 in0.0 mm 0.12 in3.0 mm
09:44 PM 32.5°F0.3°C 36.8°F2.7°C 90% Calm Calm -- 29.88 in1011.9 mb 0.00 in0.0 mm 0.00 in0.0 mm 0.12 in3.0 mm
09:47 PM 32.5°F0.3°C 36.9°F2.7°C 90% Calm Calm -- 29.88 in1011.9 mb 0.00 in0.0 mm 0.00 in0.0 mm 0.12 in3.0 mm
09:50 PM 32.5°F0.3°C 36.8°F2.7°C 90% Calm Calm -- 29.88 in1011.9 mb 0.00 in0.0 mm 0.00 in0.0 mm 0.12 in3.0 mm
09:53 PM 32.5°F0.3°C 36.9°F2.7°C 90% Calm Calm -- 29.88 in1011.9 mb 0.00 in0.0 mm 0.00 in0.0 mm 0.12 in3.0 mm
09:56 PM 32.5°F0.3°C 36.9°F2.7°C 90% Calm Calm -- 29.88 in1011.9 mb 0.00 in0.0 mm 0.00 in0.0 mm 0.12 in3.0 mm
09:59 PM 32.5°F0.3°C 36.8°F2.7°C 90% Calm Calm -- 29.87 in1011.5 mb 0.00 in0.0 mm 0.00 in0.0 mm 0.12 in3.0 mm
10:02 PM 32.5°F0.3°C 36.4°F2.4°C 89% Calm Calm -- 29.87 in1011.5 mb 0.00 in0.0 mm 0.00 in0.0 mm 0.12 in3.0 mm
10:05 PM 32.5°F0.3°C 36.9°F2.7°C 90% Calm Calm -- 29.87 in1011.5 mb 0.00 in0.0 mm 0.00 in0.0 mm 0.12 in3.0 mm
10:08 PM 32.5°F0.3°C 36.9°F2.7°C 90% Calm Calm -- 29.87 in1011.5 mb 0.00 in0.0 mm 0.00 in0.0 mm 0.12 in3.0 mm
10:11 PM 32.5°F0.3°C 36.8°F2.7°C 90% Calm Calm -- 29.87 in1011.5 mb 0.00 in0.0 mm 0.00 in0.0 mm 0.12 in3.0 mm
10:14 PM 32.5°F0.3°C 36.9°F2.7°C 90% Calm Calm -- 29.87 in1011.5 mb 0.00 in0.0 mm 0.00 in0.0 mm 0.12 in3.0 mm
10:17 PM 32.5°F0.3°C 36.8°F2.7°C 90% Calm Calm -- 29.87 in1011.5 mb 0.00 in0.0 mm 0.00 in0.0 mm 0.12 in3.0 mm
10:20 PM 32.3°F0.2°C 36.7°F2.6°C 90% Calm Calm -- 29.87 in1011.5 mb 0.00 in0.0 mm 0.00 in0.0 mm 0.12 in3.0 mm
10:23 PM 32.3°F0.2°C 36.5°F2.5°C 89% Calm Calm -- 29.87 in1011.5 mb 0.00 in0.0 mm 0.00 in0.0 mm 0.12 in3.0 mm
10:26 PM 32.3°F0.2°C 36.7°F2.6°C 90% Calm Calm -- 29.86 in1011.2 mb 0.00 in0.0 mm 0.00 in0.0 mm 0.12 in3.0 mm
10:29 PM 32.5°F0.3°C 36.7°F2.6°C 90% Calm Calm -- 29.86 in1011.2 mb 0.00 in0.0 mm 0.00 in0.0 mm 0.12 in3.0 mm
10:32 PM 32.5°F0.3°C 37.1°F2.8°C 90% Calm Calm -- 29.86 in1011.2 mb 0.00 in0.0 mm 0.00 in0.0 mm 0.12 in3.0 mm
10:35 PM 32.5°F0.3°C 36.6°F2.6°C 89% Calm Calm -- 29.86 in1011.2 mb 0.00 in0.0 mm 0.00 in0.0 mm 0.12 in3.0 mm
10:38 PM 32.5°F0.3°C 37.0°F2.8°C 90% Calm Calm -- 29.86 in1011.2 mb 0.00 in0.0 mm 0.00 in0.0 mm 0.12 in3.0 mm
10:41 PM 32.5°F0.3°C 37.1°F2.8°C 90% Calm Calm -- 29.86 in1011.2 mb 0.00 in0.0 mm 0.00 in0.0 mm 0.12 in3.0 mm
10:44 PM 32.5°F0.3°C 37.0°F2.8°C 90% Calm Calm -- 29.86 in1011.2 mb 0.00 in0.0 mm 0.00 in0.0 mm 0.12 in3.0 mm
10:47 PM 32.5°F0.3°C 36.9°F2.7°C 90% Calm Calm -- 29.86 in1011.2 mb 0.00 in0.0 mm 0.00 in0.0 mm 0.12 in3.0 mm
10:50 PM 32.5°F0.3°C 37.0°F2.8°C 90% Calm Calm -- 29.86 in1011.2 mb 0.00 in0.0 mm 0.00 in0.0 mm 0.12 in3.0 mm
10:53 PM 32.6°F0.3°C 36.8°F2.7°C 90% Calm Calm -- 29.86 in1011.2 mb 0.00 in0.0 mm 0.00 in0.0 mm 0.12 in3.0 mm
10:56 PM 32.5°F0.3°C 36.7°F2.6°C 90% Calm Calm -- 29.86 in1011.2 mb 0.00 in0.0 mm 0.00 in0.0 mm 0.12 in3.0 mm
10:59 PM 32.6°F0.3°C 36.8°F2.7°C 90% Calm Calm -- 29.86 in1011.2 mb 0.00 in0.0 mm 0.00 in0.0 mm 0.12 in3.0 mm
11:02 PM 32.5°F0.3°C 37.0°F2.8°C 90% Calm Calm -- 29.86 in1011.2 mb 0.00 in0.0 mm 0.00 in0.0 mm 0.12 in3.0 mm
11:05 PM 32.5°F0.3°C 37.1°F2.8°C 90% Calm Calm -- 29.86 in1011.2 mb 0.00 in0.0 mm 0.00 in0.0 mm 0.12 in3.0 mm
11:08 PM 32.5°F0.3°C 37.0°F2.8°C 90% Calm Calm -- 29.86 in1011.2 mb 0.00 in0.0 mm 0.00 in0.0 mm 0.12 in3.0 mm
11:11 PM 32.5°F0.3°C 37.0°F2.8°C 90% Calm Calm -- 29.86 in1011.2 mb 0.00 in0.0 mm 0.00 in0.0 mm 0.12 in3.0 mm
11:14 PM 32.5°F0.3°C 36.8°F2.7°C 90% Calm Calm -- 29.86 in1011.2 mb 0.00 in0.0 mm 0.00 in0.0 mm 0.12 in3.0 mm
11:17 PM 32.5°F0.3°C 36.9°F2.7°C 90% Calm Calm -- 29.86 in1011.2 mb 0.00 in0.0 mm 0.00 in0.0 mm 0.12 in3.0 mm
11:20 PM 32.3°F0.2°C 36.9°F2.7°C 90% Calm Calm -- 29.86 in1011.2 mb 0.00 in0.0 mm 0.00 in0.0 mm 0.12 in3.0 mm
11:23 PM 32.5°F0.3°C 36.6°F2.6°C 89% Calm Calm -- 29.85 in1010.8 mb 0.00 in0.0 mm 0.00 in0.0 mm 0.12 in3.0 mm
11:26 PM 32.5°F0.3°C 36.8°F2.7°C 90% Calm Calm -- 29.85 in1010.8 mb 0.00 in0.0 mm 0.00 in0.0 mm 0.12 in3.0 mm
11:29 PM 32.5°F0.3°C 36.8°F2.7°C 90% Calm Calm -- 29.85 in1010.8 mb 0.00 in0.0 mm 0.00 in0.0 mm 0.12 in3.0 mm
11:32 PM 32.5°F0.3°C 36.9°F2.7°C 90% Calm Calm -- 29.85 in1010.8 mb 0.00 in0.0 mm 0.00 in0.0 mm 0.12 in3.0 mm
11:35 PM 32.5°F0.3°C 36.7°F2.6°C 90% Calm Calm -- 29.84 in1010.5 mb 0.00 in0.0 mm 0.00 in0.0 mm 0.12 in3.0 mm
11:38 PM 32.5°F0.3°C 37.0°F2.8°C 90% Calm Calm -- 29.84 in1010.5 mb 0.00 in0.0 mm 0.00 in0.0 mm 0.12 in3.0 mm
11:41 PM 32.5°F0.3°C 36.9°F2.7°C 90% Calm Calm -- 29.84 in1010.5 mb 0.00 in0.0 mm 0.00 in0.0 mm 0.12 in3.0 mm
11:44 PM 32.5°F0.3°C 36.6°F2.6°C 90% Calm Calm -- 29.85 in1010.8 mb 0.00 in0.0 mm 0.00 in0.0 mm 0.12 in3.0 mm
11:47 PM 32.5°F0.3°C 36.7°F2.6°C 90% Calm Calm -- 29.84 in1010.5 mb 0.00 in0.0 mm 0.00 in0.0 mm 0.12 in3.0 mm
11:50 PM 32.5°F0.3°C 37.0°F2.8°C 90% Calm Calm -- 29.85 in1010.8 mb 0.00 in0.0 mm 0.00 in0.0 mm 0.12 in3.0 mm
11:53 PM 32.6°F0.3°C 37.0°F2.8°C 90% Calm Calm -- 29.84 in1010.5 mb 0.00 in0.0 mm 0.00 in0.0 mm 0.12 in3.0 mm
11:56 PM 32.5°F0.3°C 36.9°F2.7°C 90% Calm Calm -- 29.84 in1010.5 mb 0.00 in0.0 mm 0.00 in0.0 mm 0.12 in3.0 mm
11:59 PM 32.3°F0.2°C 36.9°F2.7°C 90% Calm Calm -- 29.84 in1010.5 mb 0.00 in0.0 mm 0.00 in0.0 mm 0.12 in3.0 mm